<?xml version="1.0" encoding="UTF-8" standalone="no" ?>
<gpx xmlns="http://www.topografix.com/GPX/1/1" xmlns:xsi="http://www.w3.org/2001/XMLSchema-instance" xsi:schemaLocation="http://www.topografix.com/GPX/1/1 http://www.topografix.com/GPX/1/1/gpx.xsd" version="1.1" creator="VisuGPX - https://www.visugpx.com">
  <metadata>
    <name>Trace VTT Montalieu-Vercieu Les Balcons du Bugey</name>
    <desc><![CDATA[Boucle VTT de 66km / 926m D+ au départ de Montalieu-Vercieu et permettant  de découvrir la vallée d'Amby et l'étang de Lemps]]></desc>
  </metadata>
  <wpt lat="45.83781" lon="5.34116">
    <ele>309</ele>
    <name><![CDATA[Ravitaillement]]></name>
  </wpt>
  <wpt lat="45.77267" lon="5.32897">
    <ele>339.6</ele>
    <name><![CDATA[Ravitaillement]]></name>
  </wpt>
  <trk>
    <name><![CDATA[BB 2025 VTT 65km-21028215]]></name>
    <extensions>
      <line xmlns="http://www.topografix.com/GPX/gpx_style/0/2">
        <color>0000FF</color>
        <width>4</width>
      </line>
    </extensions>
    <trkseg>
      <trkpt lat="45.82753" lon="5.42069">
        <ele>205</ele>
        <time>2026-01-13T15:59:55Z</time>
      </trkpt>
      <trkpt lat="45.82677" lon="5.42161">
        <ele>204</ele>
        <time>2026-01-13T16:00:18Z</time>
      </trkpt>
      <trkpt lat="45.82596" lon="5.42226">
        <ele>203</ele>
        <time>2026-01-13T16:00:40Z</time>
      </trkpt>
      <trkpt lat="45.82569" lon="5.42074">
        <ele>205</ele>
        <time>2026-01-13T16:01:05Z</time>
      </trkpt>
      <trkpt lat="45.8251" lon="5.4208">
        <ele>203</ele>
        <time>2026-01-13T16:01:19Z</time>
      </trkpt>
      <trkpt lat="45.82442" lon="5.41993">
        <ele>205</ele>
        <time>2026-01-13T16:01:41Z</time>
      </trkpt>
      <trkpt lat="45.82374" lon="5.4198">
        <ele>205</ele>
        <time>2026-01-13T16:01:57Z</time>
      </trkpt>
      <trkpt lat="45.82372" lon="5.41895">
        <ele>205</ele>
        <time>2026-01-13T16:02:10Z</time>
      </trkpt>
      <trkpt lat="45.82324" lon="5.41847">
        <ele>205</ele>
        <time>2026-01-13T16:02:24Z</time>
      </trkpt>
      <trkpt lat="45.82216" lon="5.41808">
        <ele>208</ele>
        <time>2026-01-13T16:02:50Z</time>
      </trkpt>
      <trkpt lat="45.82167" lon="5.41837">
        <ele>207</ele>
        <time>2026-01-13T16:03:02Z</time>
      </trkpt>
      <trkpt lat="45.82163" lon="5.41788">
        <ele>210</ele>
        <time>2026-01-13T16:03:10Z</time>
      </trkpt>
      <trkpt lat="45.82123" lon="5.41777">
        <ele>209</ele>
        <time>2026-01-13T16:03:20Z</time>
      </trkpt>
      <trkpt lat="45.82116" lon="5.41736">
        <ele>210</ele>
        <time>2026-01-13T16:03:27Z</time>
      </trkpt>
      <trkpt lat="45.82083" lon="5.41701">
        <ele>209</ele>
        <time>2026-01-13T16:03:36Z</time>
      </trkpt>
      <trkpt lat="45.82062" lon="5.41713">
        <ele>207</ele>
        <time>2026-01-13T16:03:42Z</time>
      </trkpt>
      <trkpt lat="45.82036" lon="5.41648">
        <ele>207</ele>
        <time>2026-01-13T16:03:54Z</time>
      </trkpt>
      <trkpt lat="45.82051" lon="5.41612">
        <ele>210</ele>
        <time>2026-01-13T16:04:01Z</time>
      </trkpt>
      <trkpt lat="45.8201" lon="5.41581">
        <ele>209</ele>
        <time>2026-01-13T16:04:12Z</time>
      </trkpt>
      <trkpt lat="45.82063" lon="5.41533">
        <ele>213</ele>
        <time>2026-01-13T16:04:26Z</time>
      </trkpt>
      <trkpt lat="45.82157" lon="5.41594">
        <ele>215</ele>
        <time>2026-01-13T16:04:50Z</time>
      </trkpt>
      <trkpt lat="45.82293" lon="5.4159">
        <ele>215</ele>
        <time>2026-01-13T16:05:22Z</time>
      </trkpt>
      <trkpt lat="45.82322" lon="5.41567">
        <ele>215</ele>
        <time>2026-01-13T16:05:30Z</time>
      </trkpt>
      <trkpt lat="45.82332" lon="5.41529">
        <ele>216</ele>
        <time>2026-01-13T16:05:36Z</time>
      </trkpt>
      <trkpt lat="45.8234" lon="5.41381">
        <ele>219</ele>
        <time>2026-01-13T16:06:01Z</time>
      </trkpt>
      <trkpt lat="45.8232" lon="5.41323">
        <ele>219</ele>
        <time>2026-01-13T16:06:11Z</time>
      </trkpt>
      <trkpt lat="45.82158" lon="5.41122">
        <ele>216</ele>
        <time>2026-01-13T16:07:01Z</time>
      </trkpt>
      <trkpt lat="45.82237" lon="5.40852">
        <ele>216</ele>
        <time>2026-01-13T16:07:49Z</time>
      </trkpt>
      <trkpt lat="45.82194" lon="5.40745">
        <ele>220</ele>
        <time>2026-01-13T16:08:09Z</time>
      </trkpt>
      <trkpt lat="45.82211" lon="5.40663">
        <ele>221</ele>
        <time>2026-01-13T16:08:23Z</time>
      </trkpt>
      <trkpt lat="45.82223" lon="5.40685">
        <ele>221</ele>
        <time>2026-01-13T16:08:27Z</time>
      </trkpt>
      <trkpt lat="45.82216" lon="5.40659">
        <ele>221</ele>
        <time>2026-01-13T16:08:32Z</time>
      </trkpt>
      <trkpt lat="45.8216" lon="5.40659">
        <ele>221</ele>
        <time>2026-01-13T16:08:45Z</time>
      </trkpt>
      <trkpt lat="45.82135" lon="5.40544">
        <ele>221</ele>
        <time>2026-01-13T16:09:05Z</time>
      </trkpt>
      <trkpt lat="45.81963" lon="5.40338">
        <ele>221</ele>
        <time>2026-01-13T16:09:57Z</time>
      </trkpt>
      <trkpt lat="45.821" lon="5.40298">
        <ele>220</ele>
        <time>2026-01-13T16:10:30Z</time>
      </trkpt>
      <trkpt lat="45.82312" lon="5.40321">
        <ele>223</ele>
        <time>2026-01-13T16:11:19Z</time>
      </trkpt>
      <trkpt lat="45.8233" lon="5.40174">
        <ele>228</ele>
        <time>2026-01-13T16:11:43Z</time>
      </trkpt>
      <trkpt lat="45.82263" lon="5.40068">
        <ele>228</ele>
        <time>2026-01-13T16:12:07Z</time>
      </trkpt>
      <trkpt lat="45.82271" lon="5.39968">
        <ele>232</ele>
        <time>2026-01-13T16:12:23Z</time>
      </trkpt>
      <trkpt lat="45.82326" lon="5.39891">
        <ele>237</ele>
        <time>2026-01-13T16:12:41Z</time>
      </trkpt>
      <trkpt lat="45.82544" lon="5.39694">
        <ele>245</ele>
        <time>2026-01-13T16:13:41Z</time>
      </trkpt>
      <trkpt lat="45.82556" lon="5.39386">
        <ele>253</ele>
        <time>2026-01-13T16:14:31Z</time>
      </trkpt>
      <trkpt lat="45.82691" lon="5.39247">
        <ele>258</ele>
        <time>2026-01-13T16:15:10Z</time>
      </trkpt>
      <trkpt lat="45.82633" lon="5.39113">
        <ele>255</ele>
        <time>2026-01-13T16:15:36Z</time>
      </trkpt>
      <trkpt lat="45.82705" lon="5.39028">
        <ele>253</ele>
        <time>2026-01-13T16:15:58Z</time>
      </trkpt>
      <trkpt lat="45.82685" lon="5.38937">
        <ele>251</ele>
        <time>2026-01-13T16:16:13Z</time>
      </trkpt>
      <trkpt lat="45.82686" lon="5.3878">
        <ele>253</ele>
        <time>2026-01-13T16:16:39Z</time>
      </trkpt>
      <trkpt lat="45.82802" lon="5.38541">
        <ele>260</ele>
        <time>2026-01-13T16:17:26Z</time>
      </trkpt>
      <trkpt lat="45.82887" lon="5.38661">
        <ele>258</ele>
        <time>2026-01-13T16:17:54Z</time>
      </trkpt>
      <trkpt lat="45.83005" lon="5.38746">
        <ele>261</ele>
        <time>2026-01-13T16:18:25Z</time>
      </trkpt>
      <trkpt lat="45.83214" lon="5.38752">
        <ele>263</ele>
        <time>2026-01-13T16:19:14Z</time>
      </trkpt>
      <trkpt lat="45.83355" lon="5.38797">
        <ele>268</ele>
        <time>2026-01-13T16:19:47Z</time>
      </trkpt>
      <trkpt lat="45.83472" lon="5.38788">
        <ele>274</ele>
        <time>2026-01-13T16:20:15Z</time>
      </trkpt>
      <trkpt lat="45.83476" lon="5.38652">
        <ele>281</ele>
        <time>2026-01-13T16:20:37Z</time>
      </trkpt>
      <trkpt lat="45.83627" lon="5.38744">
        <ele>281</ele>
        <time>2026-01-13T16:21:15Z</time>
      </trkpt>
      <trkpt lat="45.83717" lon="5.38761">
        <ele>281</ele>
        <time>2026-01-13T16:21:36Z</time>
      </trkpt>
      <trkpt lat="45.83769" lon="5.38799">
        <ele>276</ele>
        <time>2026-01-13T16:21:50Z</time>
      </trkpt>
      <trkpt lat="45.83857" lon="5.38799">
        <ele>274</ele>
        <time>2026-01-13T16:22:11Z</time>
      </trkpt>
      <trkpt lat="45.83922" lon="5.38777">
        <ele>277</ele>
        <time>2026-01-13T16:22:26Z</time>
      </trkpt>
      <trkpt lat="45.83995" lon="5.38796">
        <ele>274</ele>
        <time>2026-01-13T16:22:43Z</time>
      </trkpt>
      <trkpt lat="45.8402" lon="5.38831">
        <ele>269</ele>
        <time>2026-01-13T16:22:52Z</time>
      </trkpt>
      <trkpt lat="45.84198" lon="5.38915">
        <ele>275</ele>
        <time>2026-01-13T16:23:35Z</time>
      </trkpt>
      <trkpt lat="45.84177" lon="5.38892">
        <ele>277</ele>
        <time>2026-01-13T16:23:42Z</time>
      </trkpt>
      <trkpt lat="45.84099" lon="5.38818">
        <ele>283</ele>
        <time>2026-01-13T16:24:03Z</time>
      </trkpt>
      <trkpt lat="45.84136" lon="5.38785">
        <ele>292</ele>
        <time>2026-01-13T16:24:14Z</time>
      </trkpt>
      <trkpt lat="45.84161" lon="5.38691">
        <ele>302</ele>
        <time>2026-01-13T16:24:30Z</time>
      </trkpt>
      <trkpt lat="45.84117" lon="5.38671">
        <ele>301</ele>
        <time>2026-01-13T16:24:41Z</time>
      </trkpt>
      <trkpt lat="45.84073" lon="5.387">
        <ele>297</ele>
        <time>2026-01-13T16:24:52Z</time>
      </trkpt>
      <trkpt lat="45.84038" lon="5.38694">
        <ele>296</ele>
        <time>2026-01-13T16:25:00Z</time>
      </trkpt>
      <trkpt lat="45.84046" lon="5.38655">
        <ele>301</ele>
        <time>2026-01-13T16:25:07Z</time>
      </trkpt>
      <trkpt lat="45.84034" lon="5.38631">
        <ele>305</ele>
        <time>2026-01-13T16:25:12Z</time>
      </trkpt>
      <trkpt lat="45.84162" lon="5.38467">
        <ele>316</ele>
        <time>2026-01-13T16:25:52Z</time>
      </trkpt>
      <trkpt lat="45.84201" lon="5.38384">
        <ele>322</ele>
        <time>2026-01-13T16:26:08Z</time>
      </trkpt>
      <trkpt lat="45.84157" lon="5.38361">
        <ele>327</ele>
        <time>2026-01-13T16:26:19Z</time>
      </trkpt>
      <trkpt lat="45.84082" lon="5.38364">
        <ele>334</ele>
        <time>2026-01-13T16:26:36Z</time>
      </trkpt>
      <trkpt lat="45.84032" lon="5.38329">
        <ele>336</ele>
        <time>2026-01-13T16:26:49Z</time>
      </trkpt>
      <trkpt lat="45.84024" lon="5.38289">
        <ele>339</ele>
        <time>2026-01-13T16:26:56Z</time>
      </trkpt>
      <trkpt lat="45.84063" lon="5.38294">
        <ele>338</ele>
        <time>2026-01-13T16:27:05Z</time>
      </trkpt>
      <trkpt lat="45.84122" lon="5.38286">
        <ele>336</ele>
        <time>2026-01-13T16:27:19Z</time>
      </trkpt>
      <trkpt lat="45.84183" lon="5.38235">
        <ele>337</ele>
        <time>2026-01-13T16:27:36Z</time>
      </trkpt>
      <trkpt lat="45.84251" lon="5.38234">
        <ele>334</ele>
        <time>2026-01-13T16:27:52Z</time>
      </trkpt>
      <trkpt lat="45.84285" lon="5.38297">
        <ele>326</ele>
        <time>2026-01-13T16:28:05Z</time>
      </trkpt>
      <trkpt lat="45.8447" lon="5.38109">
        <ele>338</ele>
        <time>2026-01-13T16:28:58Z</time>
      </trkpt>
      <trkpt lat="45.84516" lon="5.38093">
        <ele>338</ele>
        <time>2026-01-13T16:29:09Z</time>
      </trkpt>
      <trkpt lat="45.8459" lon="5.38085">
        <ele>330</ele>
        <time>2026-01-13T16:29:26Z</time>
      </trkpt>
      <trkpt lat="45.84743" lon="5.37936">
        <ele>340</ele>
        <time>2026-01-13T16:30:09Z</time>
      </trkpt>
      <trkpt lat="45.84839" lon="5.37792">
        <ele>346</ele>
        <time>2026-01-13T16:30:41Z</time>
      </trkpt>
      <trkpt lat="45.84946" lon="5.37667">
        <ele>353</ele>
        <time>2026-01-13T16:31:14Z</time>
      </trkpt>
      <trkpt lat="45.85054" lon="5.37496">
        <ele>362</ele>
        <time>2026-01-13T16:31:51Z</time>
      </trkpt>
      <trkpt lat="45.85223" lon="5.37258">
        <ele>367</ele>
        <time>2026-01-13T16:32:47Z</time>
      </trkpt>
      <trkpt lat="45.85263" lon="5.37142">
        <ele>366</ele>
        <time>2026-01-13T16:33:08Z</time>
      </trkpt>
      <trkpt lat="45.85236" lon="5.37071">
        <ele>371</ele>
        <time>2026-01-13T16:33:21Z</time>
      </trkpt>
      <trkpt lat="45.8515" lon="5.37046">
        <ele>379</ele>
        <time>2026-01-13T16:33:41Z</time>
      </trkpt>
      <trkpt lat="45.85117" lon="5.36995">
        <ele>381</ele>
        <time>2026-01-13T16:33:53Z</time>
      </trkpt>
      <trkpt lat="45.85078" lon="5.36926">
        <ele>382</ele>
        <time>2026-01-13T16:34:07Z</time>
      </trkpt>
      <trkpt lat="45.84977" lon="5.36856">
        <ele>378</ele>
        <time>2026-01-13T16:34:33Z</time>
      </trkpt>
      <trkpt lat="45.849" lon="5.36845">
        <ele>375</ele>
        <time>2026-01-13T16:34:51Z</time>
      </trkpt>
      <trkpt lat="45.84837" lon="5.36797">
        <ele>375</ele>
        <time>2026-01-13T16:35:08Z</time>
      </trkpt>
      <trkpt lat="45.84759" lon="5.36784">
        <ele>374</ele>
        <time>2026-01-13T16:35:26Z</time>
      </trkpt>
      <trkpt lat="45.84711" lon="5.36616">
        <ele>371</ele>
        <time>2026-01-13T16:35:56Z</time>
      </trkpt>
      <trkpt lat="45.84717" lon="5.36519">
        <ele>371</ele>
        <time>2026-01-13T16:36:12Z</time>
      </trkpt>
      <trkpt lat="45.84617" lon="5.3636">
        <ele>354</ele>
        <time>2026-01-13T16:36:46Z</time>
      </trkpt>
      <trkpt lat="45.84631" lon="5.36235">
        <ele>348</ele>
        <time>2026-01-13T16:37:07Z</time>
      </trkpt>
      <trkpt lat="45.84725" lon="5.36268">
        <ele>362</ele>
        <time>2026-01-13T16:37:30Z</time>
      </trkpt>
      <trkpt lat="45.84752" lon="5.36261">
        <ele>365</ele>
        <time>2026-01-13T16:37:36Z</time>
      </trkpt>
      <trkpt lat="45.84878" lon="5.36166">
        <ele>372</ele>
        <time>2026-01-13T16:38:09Z</time>
      </trkpt>
      <trkpt lat="45.84962" lon="5.36072">
        <ele>374</ele>
        <time>2026-01-13T16:38:34Z</time>
      </trkpt>
      <trkpt lat="45.85003" lon="5.36092">
        <ele>378</ele>
        <time>2026-01-13T16:38:44Z</time>
      </trkpt>
      <trkpt lat="45.85047" lon="5.36063">
        <ele>380</ele>
        <time>2026-01-13T16:38:56Z</time>
      </trkpt>
      <trkpt lat="45.85072" lon="5.35939">
        <ele>375</ele>
        <time>2026-01-13T16:39:17Z</time>
      </trkpt>
      <trkpt lat="45.85098" lon="5.35939">
        <ele>376</ele>
        <time>2026-01-13T16:39:23Z</time>
      </trkpt>
      <trkpt lat="45.8514" lon="5.35902">
        <ele>376</ele>
        <time>2026-01-13T16:39:34Z</time>
      </trkpt>
      <trkpt lat="45.85166" lon="5.35849">
        <ele>376</ele>
        <time>2026-01-13T16:39:45Z</time>
      </trkpt>
      <trkpt lat="45.85284" lon="5.35849">
        <ele>377</ele>
        <time>2026-01-13T16:40:12Z</time>
      </trkpt>
      <trkpt lat="45.85361" lon="5.35903">
        <ele>377</ele>
        <time>2026-01-13T16:40:32Z</time>
      </trkpt>
      <trkpt lat="45.85463" lon="5.35856">
        <ele>381</ele>
        <time>2026-01-13T16:40:57Z</time>
      </trkpt>
      <trkpt lat="45.8552" lon="5.35804">
        <ele>381</ele>
        <time>2026-01-13T16:41:13Z</time>
      </trkpt>
      <trkpt lat="45.85646" lon="5.35605">
        <ele>372</ele>
        <time>2026-01-13T16:41:57Z</time>
      </trkpt>
      <trkpt lat="45.8569" lon="5.35572">
        <ele>373</ele>
        <time>2026-01-13T16:42:08Z</time>
      </trkpt>
      <trkpt lat="45.85878" lon="5.35301">
        <ele>382</ele>
        <time>2026-01-13T16:43:11Z</time>
      </trkpt>
      <trkpt lat="45.85852" lon="5.35196">
        <ele>384</ele>
        <time>2026-01-13T16:43:29Z</time>
      </trkpt>
      <trkpt lat="45.85729" lon="5.35168">
        <ele>395</ele>
        <time>2026-01-13T16:43:58Z</time>
      </trkpt>
      <trkpt lat="45.85698" lon="5.35144">
        <ele>397</ele>
        <time>2026-01-13T16:44:06Z</time>
      </trkpt>
      <trkpt lat="45.85663" lon="5.35193">
        <ele>397</ele>
        <time>2026-01-13T16:44:17Z</time>
      </trkpt>
      <trkpt lat="45.8556" lon="5.35153">
        <ele>393</ele>
        <time>2026-01-13T16:44:42Z</time>
      </trkpt>
      <trkpt lat="45.85517" lon="5.35158">
        <ele>392</ele>
        <time>2026-01-13T16:44:52Z</time>
      </trkpt>
      <trkpt lat="45.8553" lon="5.35299">
        <ele>393</ele>
        <time>2026-01-13T16:45:16Z</time>
      </trkpt>
      <trkpt lat="45.8548" lon="5.35303">
        <ele>389</ele>
        <time>2026-01-13T16:45:27Z</time>
      </trkpt>
      <trkpt lat="45.85393" lon="5.35424">
        <ele>382</ele>
        <time>2026-01-13T16:45:56Z</time>
      </trkpt>
      <trkpt lat="45.85339" lon="5.35425">
        <ele>381</ele>
        <time>2026-01-13T16:46:08Z</time>
      </trkpt>
      <trkpt lat="45.85294" lon="5.35384">
        <ele>383</ele>
        <time>2026-01-13T16:46:21Z</time>
      </trkpt>
      <trkpt lat="45.85332" lon="5.35288">
        <ele>383</ele>
        <time>2026-01-13T16:46:39Z</time>
      </trkpt>
      <trkpt lat="45.85262" lon="5.35217">
        <ele>375</ele>
        <time>2026-01-13T16:46:59Z</time>
      </trkpt>
      <trkpt lat="45.85214" lon="5.35132">
        <ele>370</ele>
        <time>2026-01-13T16:47:16Z</time>
      </trkpt>
      <trkpt lat="45.85166" lon="5.34969">
        <ele>366</ele>
        <time>2026-01-13T16:47:45Z</time>
      </trkpt>
      <trkpt lat="45.85159" lon="5.34854">
        <ele>361</ele>
        <time>2026-01-13T16:48:04Z</time>
      </trkpt>
      <trkpt lat="45.85141" lon="5.34779">
        <ele>361</ele>
        <time>2026-01-13T16:48:17Z</time>
      </trkpt>
      <trkpt lat="45.85238" lon="5.34708">
        <ele>367</ele>
        <time>2026-01-13T16:48:42Z</time>
      </trkpt>
      <trkpt lat="45.85238" lon="5.34652">
        <ele>368</ele>
        <time>2026-01-13T16:48:51Z</time>
      </trkpt>
      <trkpt lat="45.85287" lon="5.3459">
        <ele>372</ele>
        <time>2026-01-13T16:49:07Z</time>
      </trkpt>
      <trkpt lat="45.85403" lon="5.34487">
        <ele>380</ele>
        <time>2026-01-13T16:49:39Z</time>
      </trkpt>
      <trkpt lat="45.85467" lon="5.34492">
        <ele>380</ele>
        <time>2026-01-13T16:49:54Z</time>
      </trkpt>
      <trkpt lat="45.8548" lon="5.34525">
        <ele>377</ele>
        <time>2026-01-13T16:50:00Z</time>
      </trkpt>
      <trkpt lat="45.85497" lon="5.34547">
        <ele>374</ele>
        <time>2026-01-13T16:50:05Z</time>
      </trkpt>
      <trkpt lat="45.85531" lon="5.34539">
        <ele>370</ele>
        <time>2026-01-13T16:50:13Z</time>
      </trkpt>
      <trkpt lat="45.85579" lon="5.3446">
        <ele>366</ele>
        <time>2026-01-13T16:50:30Z</time>
      </trkpt>
      <trkpt lat="45.85617" lon="5.34435">
        <ele>362</ele>
        <time>2026-01-13T16:50:40Z</time>
      </trkpt>
      <trkpt lat="45.8559" lon="5.34375">
        <ele>366</ele>
        <time>2026-01-13T16:50:51Z</time>
      </trkpt>
      <trkpt lat="45.85547" lon="5.34304">
        <ele>363</ele>
        <time>2026-01-13T16:51:07Z</time>
      </trkpt>
      <trkpt lat="45.85506" lon="5.34285">
        <ele>363</ele>
        <time>2026-01-13T16:51:17Z</time>
      </trkpt>
      <trkpt lat="45.85477" lon="5.34261">
        <ele>357</ele>
        <time>2026-01-13T16:51:25Z</time>
      </trkpt>
      <trkpt lat="45.85437" lon="5.34239">
        <ele>348</ele>
        <time>2026-01-13T16:51:35Z</time>
      </trkpt>
      <trkpt lat="45.8539" lon="5.3425">
        <ele>346</ele>
        <time>2026-01-13T16:51:46Z</time>
      </trkpt>
      <trkpt lat="45.85334" lon="5.34339">
        <ele>349</ele>
        <time>2026-01-13T16:52:05Z</time>
      </trkpt>
      <trkpt lat="45.85291" lon="5.34365">
        <ele>350</ele>
        <time>2026-01-13T16:52:16Z</time>
      </trkpt>
      <trkpt lat="45.85301" lon="5.34305">
        <ele>344</ele>
        <time>2026-01-13T16:52:26Z</time>
      </trkpt>
      <trkpt lat="45.85276" lon="5.34212">
        <ele>332</ele>
        <time>2026-01-13T16:52:42Z</time>
      </trkpt>
      <trkpt lat="45.85268" lon="5.34164">
        <ele>325</ele>
        <time>2026-01-13T16:52:50Z</time>
      </trkpt>
      <trkpt lat="45.85252" lon="5.34127">
        <ele>322</ele>
        <time>2026-01-13T16:52:58Z</time>
      </trkpt>
      <trkpt lat="45.85154" lon="5.34002">
        <ele>313</ele>
        <time>2026-01-13T16:53:28Z</time>
      </trkpt>
      <trkpt lat="45.85097" lon="5.33953">
        <ele>307</ele>
        <time>2026-01-13T16:53:44Z</time>
      </trkpt>
      <trkpt lat="45.84964" lon="5.33875">
        <ele>299</ele>
        <time>2026-01-13T16:54:17Z</time>
      </trkpt>
      <trkpt lat="45.84895" lon="5.33846">
        <ele>297</ele>
        <time>2026-01-13T16:54:34Z</time>
      </trkpt>
      <trkpt lat="45.848" lon="5.33837">
        <ele>300</ele>
        <time>2026-01-13T16:54:56Z</time>
      </trkpt>
      <trkpt lat="45.84776" lon="5.33812">
        <ele>295</ele>
        <time>2026-01-13T16:55:03Z</time>
      </trkpt>
      <trkpt lat="45.84749" lon="5.33799">
        <ele>292</ele>
        <time>2026-01-13T16:55:10Z</time>
      </trkpt>
      <trkpt lat="45.84684" lon="5.33821">
        <ele>296</ele>
        <time>2026-01-13T16:55:25Z</time>
      </trkpt>
      <trkpt lat="45.84569" lon="5.34033">
        <ele>329</ele>
        <time>2026-01-13T16:56:09Z</time>
      </trkpt>
      <trkpt lat="45.84496" lon="5.34125">
        <ele>328</ele>
        <time>2026-01-13T16:56:32Z</time>
      </trkpt>
      <trkpt lat="45.84458" lon="5.34141">
        <ele>326</ele>
        <time>2026-01-13T16:56:41Z</time>
      </trkpt>
      <trkpt lat="45.84424" lon="5.3414">
        <ele>325</ele>
        <time>2026-01-13T16:56:49Z</time>
      </trkpt>
      <trkpt lat="45.84388" lon="5.34188">
        <ele>322</ele>
        <time>2026-01-13T16:57:01Z</time>
      </trkpt>
      <trkpt lat="45.84358" lon="5.34142">
        <ele>325</ele>
        <time>2026-01-13T16:57:11Z</time>
      </trkpt>
      <trkpt lat="45.84353" lon="5.34089">
        <ele>328</ele>
        <time>2026-01-13T16:57:19Z</time>
      </trkpt>
      <trkpt lat="45.84312" lon="5.33994">
        <ele>335</ele>
        <time>2026-01-13T16:57:38Z</time>
      </trkpt>
      <trkpt lat="45.84295" lon="5.33973">
        <ele>336</ele>
        <time>2026-01-13T16:57:43Z</time>
      </trkpt>
      <trkpt lat="45.84253" lon="5.33956">
        <ele>336</ele>
        <time>2026-01-13T16:57:53Z</time>
      </trkpt>
      <trkpt lat="45.84213" lon="5.33934">
        <ele>337</ele>
        <time>2026-01-13T16:58:03Z</time>
      </trkpt>
      <trkpt lat="45.84166" lon="5.33877">
        <ele>339</ele>
        <time>2026-01-13T16:58:17Z</time>
      </trkpt>
      <trkpt lat="45.84078" lon="5.33832">
        <ele>336</ele>
        <time>2026-01-13T16:58:39Z</time>
      </trkpt>
      <trkpt lat="45.84047" lon="5.33811">
        <ele>336</ele>
        <time>2026-01-13T16:58:47Z</time>
      </trkpt>
      <trkpt lat="45.83938" lon="5.33689">
        <ele>333</ele>
        <time>2026-01-13T16:59:20Z</time>
      </trkpt>
      <trkpt lat="45.83925" lon="5.33678">
        <ele>333</ele>
        <time>2026-01-13T16:59:23Z</time>
      </trkpt>
      <trkpt lat="45.84032" lon="5.33546">
        <ele>313</ele>
        <time>2026-01-13T16:59:56Z</time>
      </trkpt>
      <trkpt lat="45.84093" lon="5.33536">
        <ele>305</ele>
        <time>2026-01-13T17:00:10Z</time>
      </trkpt>
      <trkpt lat="45.84194" lon="5.33531">
        <ele>284</ele>
        <time>2026-01-13T17:00:34Z</time>
      </trkpt>
      <trkpt lat="45.8407" lon="5.33397">
        <ele>281</ele>
        <time>2026-01-13T17:01:10Z</time>
      </trkpt>
      <trkpt lat="45.84056" lon="5.3328">
        <ele>270</ele>
        <time>2026-01-13T17:01:30Z</time>
      </trkpt>
      <trkpt lat="45.83983" lon="5.33256">
        <ele>279</ele>
        <time>2026-01-13T17:01:47Z</time>
      </trkpt>
      <trkpt lat="45.839" lon="5.33265">
        <ele>282</ele>
        <time>2026-01-13T17:02:06Z</time>
      </trkpt>
      <trkpt lat="45.83765" lon="5.33306">
        <ele>296</ele>
        <time>2026-01-13T17:02:39Z</time>
      </trkpt>
      <trkpt lat="45.8372" lon="5.33349">
        <ele>305</ele>
        <time>2026-01-13T17:02:51Z</time>
      </trkpt>
      <trkpt lat="45.83672" lon="5.33343">
        <ele>307</ele>
        <time>2026-01-13T17:03:03Z</time>
      </trkpt>
      <trkpt lat="45.83618" lon="5.33415">
        <ele>316</ele>
        <time>2026-01-13T17:03:20Z</time>
      </trkpt>
      <trkpt lat="45.83647" lon="5.33528">
        <ele>323</ele>
        <time>2026-01-13T17:03:39Z</time>
      </trkpt>
      <trkpt lat="45.83691" lon="5.33611">
        <ele>328</ele>
        <time>2026-01-13T17:03:56Z</time>
      </trkpt>
      <trkpt lat="45.83676" lon="5.33632">
        <ele>328</ele>
        <time>2026-01-13T17:04:01Z</time>
      </trkpt>
      <trkpt lat="45.83686" lon="5.33695">
        <ele>329</ele>
        <time>2026-01-13T17:04:12Z</time>
      </trkpt>
      <trkpt lat="45.83711" lon="5.33781">
        <ele>330</ele>
        <time>2026-01-13T17:04:27Z</time>
      </trkpt>
      <trkpt lat="45.83738" lon="5.34068">
        <ele>313</ele>
        <time>2026-01-13T17:05:14Z</time>
      </trkpt>
      <trkpt lat="45.83762" lon="5.3411">
        <ele>313</ele>
        <time>2026-01-13T17:05:23Z</time>
      </trkpt>
      <trkpt lat="45.83762" lon="5.34139">
        <ele>311</ele>
        <time>2026-01-13T17:05:28Z</time>
      </trkpt>
      <trkpt lat="45.83727" lon="5.34179">
        <ele>311</ele>
        <time>2026-01-13T17:05:38Z</time>
      </trkpt>
      <trkpt lat="45.83875" lon="5.34243">
        <ele>314</ele>
        <time>2026-01-13T17:06:14Z</time>
      </trkpt>
      <trkpt lat="45.84067" lon="5.34405">
        <ele>322</ele>
        <time>2026-01-13T17:07:06Z</time>
      </trkpt>
      <trkpt lat="45.84038" lon="5.34453">
        <ele>325</ele>
        <time>2026-01-13T17:07:16Z</time>
      </trkpt>
      <trkpt lat="45.84041" lon="5.34567">
        <ele>331</ele>
        <time>2026-01-13T17:07:35Z</time>
      </trkpt>
      <trkpt lat="45.8404" lon="5.34744">
        <ele>337</ele>
        <time>2026-01-13T17:08:04Z</time>
      </trkpt>
      <trkpt lat="45.8401" lon="5.348">
        <ele>339</ele>
        <time>2026-01-13T17:08:15Z</time>
      </trkpt>
      <trkpt lat="45.84068" lon="5.34856">
        <ele>343</ele>
        <time>2026-01-13T17:08:32Z</time>
      </trkpt>
      <trkpt lat="45.84073" lon="5.34907">
        <ele>344</ele>
        <time>2026-01-13T17:08:40Z</time>
      </trkpt>
      <trkpt lat="45.84016" lon="5.34908">
        <ele>342</ele>
        <time>2026-01-13T17:08:53Z</time>
      </trkpt>
      <trkpt lat="45.83994" lon="5.34943">
        <ele>341</ele>
        <time>2026-01-13T17:09:01Z</time>
      </trkpt>
      <trkpt lat="45.83933" lon="5.34945">
        <ele>338</ele>
        <time>2026-01-13T17:09:15Z</time>
      </trkpt>
      <trkpt lat="45.83809" lon="5.35018">
        <ele>330</ele>
        <time>2026-01-13T17:09:47Z</time>
      </trkpt>
      <trkpt lat="45.8372" lon="5.34806">
        <ele>327</ele>
        <time>2026-01-13T17:10:27Z</time>
      </trkpt>
      <trkpt lat="45.83651" lon="5.34762">
        <ele>324</ele>
        <time>2026-01-13T17:10:44Z</time>
      </trkpt>
      <trkpt lat="45.8362" lon="5.34715">
        <ele>324</ele>
        <time>2026-01-13T17:10:55Z</time>
      </trkpt>
      <trkpt lat="45.83531" lon="5.34692">
        <ele>324</ele>
        <time>2026-01-13T17:11:16Z</time>
      </trkpt>
      <trkpt lat="45.83518" lon="5.34748">
        <ele>321</ele>
        <time>2026-01-13T17:11:26Z</time>
      </trkpt>
      <trkpt lat="45.83454" lon="5.34864">
        <ele>319</ele>
        <time>2026-01-13T17:11:50Z</time>
      </trkpt>
      <trkpt lat="45.83419" lon="5.34793">
        <ele>320</ele>
        <time>2026-01-13T17:12:04Z</time>
      </trkpt>
      <trkpt lat="45.83342" lon="5.34729">
        <ele>318</ele>
        <time>2026-01-13T17:12:25Z</time>
      </trkpt>
      <trkpt lat="45.83026" lon="5.34706">
        <ele>306</ele>
        <time>2026-01-13T17:13:39Z</time>
      </trkpt>
      <trkpt lat="45.82874" lon="5.34676">
        <ele>301</ele>
        <time>2026-01-13T17:14:14Z</time>
      </trkpt>
      <trkpt lat="45.82735" lon="5.34643">
        <ele>295</ele>
        <time>2026-01-13T17:14:47Z</time>
      </trkpt>
      <trkpt lat="45.82575" lon="5.34643">
        <ele>286</ele>
        <time>2026-01-13T17:15:25Z</time>
      </trkpt>
      <trkpt lat="45.82575" lon="5.34742">
        <ele>288</ele>
        <time>2026-01-13T17:15:41Z</time>
      </trkpt>
      <trkpt lat="45.82518" lon="5.34807">
        <ele>288</ele>
        <time>2026-01-13T17:15:58Z</time>
      </trkpt>
      <trkpt lat="45.82453" lon="5.34834">
        <ele>288</ele>
        <time>2026-01-13T17:16:14Z</time>
      </trkpt>
      <trkpt lat="45.82415" lon="5.34807">
        <ele>288</ele>
        <time>2026-01-13T17:16:23Z</time>
      </trkpt>
      <trkpt lat="45.82406" lon="5.34759">
        <ele>287</ele>
        <time>2026-01-13T17:16:32Z</time>
      </trkpt>
      <trkpt lat="45.82329" lon="5.34706">
        <ele>281</ele>
        <time>2026-01-13T17:16:52Z</time>
      </trkpt>
      <trkpt lat="45.82292" lon="5.34755">
        <ele>285</ele>
        <time>2026-01-13T17:17:03Z</time>
      </trkpt>
      <trkpt lat="45.82292" lon="5.3471">
        <ele>281</ele>
        <time>2026-01-13T17:17:11Z</time>
      </trkpt>
      <trkpt lat="45.82274" lon="5.34685">
        <ele>278</ele>
        <time>2026-01-13T17:17:16Z</time>
      </trkpt>
      <trkpt lat="45.8228" lon="5.34646">
        <ele>274</ele>
        <time>2026-01-13T17:17:23Z</time>
      </trkpt>
      <trkpt lat="45.82199" lon="5.34632">
        <ele>271</ele>
        <time>2026-01-13T17:17:42Z</time>
      </trkpt>
      <trkpt lat="45.82122" lon="5.34593">
        <ele>267</ele>
        <time>2026-01-13T17:18:01Z</time>
      </trkpt>
      <trkpt lat="45.82058" lon="5.34592">
        <ele>267</ele>
        <time>2026-01-13T17:18:16Z</time>
      </trkpt>
      <trkpt lat="45.81851" lon="5.34445">
        <ele>268</ele>
        <time>2026-01-13T17:19:10Z</time>
      </trkpt>
      <trkpt lat="45.81828" lon="5.34408">
        <ele>267</ele>
        <time>2026-01-13T17:19:18Z</time>
      </trkpt>
      <trkpt lat="45.81828" lon="5.34343">
        <ele>268</ele>
        <time>2026-01-13T17:19:29Z</time>
      </trkpt>
      <trkpt lat="45.8178" lon="5.34204">
        <ele>274</ele>
        <time>2026-01-13T17:19:54Z</time>
      </trkpt>
      <trkpt lat="45.81784" lon="5.34156">
        <ele>278</ele>
        <time>2026-01-13T17:20:02Z</time>
      </trkpt>
      <trkpt lat="45.8183" lon="5.34104">
        <ele>282</ele>
        <time>2026-01-13T17:20:15Z</time>
      </trkpt>
      <trkpt lat="45.81894" lon="5.3407">
        <ele>286</ele>
        <time>2026-01-13T17:20:31Z</time>
      </trkpt>
      <trkpt lat="45.8197" lon="5.33941">
        <ele>287</ele>
        <time>2026-01-13T17:20:59Z</time>
      </trkpt>
      <trkpt lat="45.82037" lon="5.3388">
        <ele>288</ele>
        <time>2026-01-13T17:21:17Z</time>
      </trkpt>
      <trkpt lat="45.82087" lon="5.33892">
        <ele>289</ele>
        <time>2026-01-13T17:21:29Z</time>
      </trkpt>
      <trkpt lat="45.822" lon="5.33776">
        <ele>301</ele>
        <time>2026-01-13T17:22:02Z</time>
      </trkpt>
      <trkpt lat="45.82219" lon="5.33734">
        <ele>303</ele>
        <time>2026-01-13T17:22:10Z</time>
      </trkpt>
      <trkpt lat="45.82214" lon="5.33691">
        <ele>305</ele>
        <time>2026-01-13T17:22:17Z</time>
      </trkpt>
      <trkpt lat="45.82138" lon="5.33547">
        <ele>308</ele>
        <time>2026-01-13T17:22:46Z</time>
      </trkpt>
      <trkpt lat="45.82248" lon="5.33396">
        <ele>308</ele>
        <time>2026-01-13T17:23:22Z</time>
      </trkpt>
      <trkpt lat="45.82262" lon="5.33318">
        <ele>308</ele>
        <time>2026-01-13T17:23:35Z</time>
      </trkpt>
      <trkpt lat="45.82366" lon="5.33272">
        <ele>306</ele>
        <time>2026-01-13T17:24:00Z</time>
      </trkpt>
      <trkpt lat="45.82447" lon="5.33262">
        <ele>307</ele>
        <time>2026-01-13T17:24:19Z</time>
      </trkpt>
      <trkpt lat="45.82539" lon="5.33288">
        <ele>309</ele>
        <time>2026-01-13T17:24:41Z</time>
      </trkpt>
      <trkpt lat="45.8269" lon="5.33244">
        <ele>319</ele>
        <time>2026-01-13T17:25:17Z</time>
      </trkpt>
      <trkpt lat="45.8283" lon="5.33229">
        <ele>322</ele>
        <time>2026-01-13T17:25:50Z</time>
      </trkpt>
      <trkpt lat="45.8303" lon="5.33033">
        <ele>316</ele>
        <time>2026-01-13T17:26:47Z</time>
      </trkpt>
      <trkpt lat="45.83039" lon="5.32961">
        <ele>308</ele>
        <time>2026-01-13T17:26:58Z</time>
      </trkpt>
      <trkpt lat="45.8295" lon="5.32897">
        <ele>310</ele>
        <time>2026-01-13T17:27:22Z</time>
      </trkpt>
      <trkpt lat="45.82863" lon="5.32826">
        <ele>305</ele>
        <time>2026-01-13T17:27:45Z</time>
      </trkpt>
      <trkpt lat="45.82854" lon="5.32772">
        <ele>304</ele>
        <time>2026-01-13T17:27:54Z</time>
      </trkpt>
      <trkpt lat="45.82868" lon="5.32721">
        <ele>304</ele>
        <time>2026-01-13T17:28:03Z</time>
      </trkpt>
      <trkpt lat="45.82903" lon="5.32701">
        <ele>304</ele>
        <time>2026-01-13T17:28:12Z</time>
      </trkpt>
      <trkpt lat="45.82915" lon="5.32627">
        <ele>308</ele>
        <time>2026-01-13T17:28:24Z</time>
      </trkpt>
      <trkpt lat="45.82875" lon="5.32576">
        <ele>316</ele>
        <time>2026-01-13T17:28:37Z</time>
      </trkpt>
      <trkpt lat="45.82903" lon="5.32509">
        <ele>325</ele>
        <time>2026-01-13T17:28:49Z</time>
      </trkpt>
      <trkpt lat="45.82899" lon="5.3248">
        <ele>331</ele>
        <time>2026-01-13T17:28:54Z</time>
      </trkpt>
      <trkpt lat="45.82848" lon="5.32491">
        <ele>336</ele>
        <time>2026-01-13T17:29:06Z</time>
      </trkpt>
      <trkpt lat="45.82807" lon="5.32472">
        <ele>342</ele>
        <time>2026-01-13T17:29:16Z</time>
      </trkpt>
      <trkpt lat="45.82805" lon="5.32389">
        <ele>347</ele>
        <time>2026-01-13T17:29:30Z</time>
      </trkpt>
      <trkpt lat="45.8274" lon="5.32342">
        <ele>343</ele>
        <time>2026-01-13T17:29:47Z</time>
      </trkpt>
      <trkpt lat="45.82663" lon="5.32436">
        <ele>345</ele>
        <time>2026-01-13T17:30:10Z</time>
      </trkpt>
      <trkpt lat="45.82555" lon="5.32444">
        <ele>344</ele>
        <time>2026-01-13T17:30:36Z</time>
      </trkpt>
      <trkpt lat="45.82316" lon="5.32359">
        <ele>346</ele>
        <time>2026-01-13T17:31:33Z</time>
      </trkpt>
      <trkpt lat="45.81947" lon="5.32098">
        <ele>343</ele>
        <time>2026-01-13T17:33:09Z</time>
      </trkpt>
      <trkpt lat="45.81919" lon="5.32059">
        <ele>343</ele>
        <time>2026-01-13T17:33:18Z</time>
      </trkpt>
      <trkpt lat="45.8197" lon="5.31929">
        <ele>343</ele>
        <time>2026-01-13T17:33:43Z</time>
      </trkpt>
      <trkpt lat="45.81965" lon="5.31848">
        <ele>346</ele>
        <time>2026-01-13T17:33:56Z</time>
      </trkpt>
      <trkpt lat="45.81849" lon="5.31853">
        <ele>349</ele>
        <time>2026-01-13T17:34:23Z</time>
      </trkpt>
      <trkpt lat="45.81784" lon="5.31904">
        <ele>348</ele>
        <time>2026-01-13T17:34:40Z</time>
      </trkpt>
      <trkpt lat="45.81651" lon="5.31898">
        <ele>354</ele>
        <time>2026-01-13T17:35:11Z</time>
      </trkpt>
      <trkpt lat="45.81561" lon="5.31879">
        <ele>359</ele>
        <time>2026-01-13T17:35:33Z</time>
      </trkpt>
      <trkpt lat="45.81445" lon="5.31878">
        <ele>363</ele>
        <time>2026-01-13T17:36:00Z</time>
      </trkpt>
      <trkpt lat="45.81313" lon="5.31913">
        <ele>367</ele>
        <time>2026-01-13T17:36:31Z</time>
      </trkpt>
      <trkpt lat="45.81339" lon="5.31848">
        <ele>369</ele>
        <time>2026-01-13T17:36:43Z</time>
      </trkpt>
      <trkpt lat="45.81374" lon="5.31783">
        <ele>375</ele>
        <time>2026-01-13T17:36:57Z</time>
      </trkpt>
      <trkpt lat="45.81368" lon="5.3174">
        <ele>379</ele>
        <time>2026-01-13T17:37:04Z</time>
      </trkpt>
      <trkpt lat="45.81396" lon="5.31698">
        <ele>381</ele>
        <time>2026-01-13T17:37:13Z</time>
      </trkpt>
      <trkpt lat="45.81382" lon="5.31601">
        <ele>386</ele>
        <time>2026-01-13T17:37:29Z</time>
      </trkpt>
      <trkpt lat="45.81404" lon="5.31539">
        <ele>388</ele>
        <time>2026-01-13T17:37:41Z</time>
      </trkpt>
      <trkpt lat="45.81381" lon="5.31451">
        <ele>388</ele>
        <time>2026-01-13T17:37:56Z</time>
      </trkpt>
      <trkpt lat="45.81389" lon="5.31357">
        <ele>388</ele>
        <time>2026-01-13T17:38:11Z</time>
      </trkpt>
      <trkpt lat="45.81388" lon="5.31306">
        <ele>384</ele>
        <time>2026-01-13T17:38:20Z</time>
      </trkpt>
      <trkpt lat="45.81361" lon="5.31261">
        <ele>378</ele>
        <time>2026-01-13T17:38:29Z</time>
      </trkpt>
      <trkpt lat="45.81293" lon="5.31263">
        <ele>378</ele>
        <time>2026-01-13T17:38:45Z</time>
      </trkpt>
      <trkpt lat="45.81252" lon="5.31224">
        <ele>372</ele>
        <time>2026-01-13T17:38:57Z</time>
      </trkpt>
      <trkpt lat="45.81144" lon="5.31185">
        <ele>365</ele>
        <time>2026-01-13T17:39:23Z</time>
      </trkpt>
      <trkpt lat="45.81149" lon="5.31095">
        <ele>350</ele>
        <time>2026-01-13T17:39:37Z</time>
      </trkpt>
      <trkpt lat="45.8117" lon="5.31059">
        <ele>337</ele>
        <time>2026-01-13T17:39:45Z</time>
      </trkpt>
      <trkpt lat="45.81222" lon="5.31027">
        <ele>326</ele>
        <time>2026-01-13T17:39:58Z</time>
      </trkpt>
      <trkpt lat="45.81169" lon="5.31008">
        <ele>319</ele>
        <time>2026-01-13T17:40:11Z</time>
      </trkpt>
      <trkpt lat="45.8113" lon="5.30968">
        <ele>311</ele>
        <time>2026-01-13T17:40:22Z</time>
      </trkpt>
      <trkpt lat="45.81159" lon="5.30943">
        <ele>293</ele>
        <time>2026-01-13T17:40:30Z</time>
      </trkpt>
      <trkpt lat="45.81131" lon="5.30932">
        <ele>294</ele>
        <time>2026-01-13T17:40:37Z</time>
      </trkpt>
      <trkpt lat="45.8116" lon="5.30914">
        <ele>281</ele>
        <time>2026-01-13T17:40:44Z</time>
      </trkpt>
      <trkpt lat="45.81159" lon="5.30888">
        <ele>273</ele>
        <time>2026-01-13T17:40:49Z</time>
      </trkpt>
      <trkpt lat="45.81065" lon="5.30781">
        <ele>252</ele>
        <time>2026-01-13T17:41:17Z</time>
      </trkpt>
      <trkpt lat="45.81062" lon="5.30745">
        <ele>243</ele>
        <time>2026-01-13T17:41:22Z</time>
      </trkpt>
      <trkpt lat="45.80963" lon="5.30663">
        <ele>234</ele>
        <time>2026-01-13T17:41:49Z</time>
      </trkpt>
      <trkpt lat="45.80875" lon="5.30652">
        <ele>236</ele>
        <time>2026-01-13T17:42:10Z</time>
      </trkpt>
      <trkpt lat="45.80884" lon="5.30593">
        <ele>230</ele>
        <time>2026-01-13T17:42:20Z</time>
      </trkpt>
      <trkpt lat="45.80845" lon="5.30575">
        <ele>229</ele>
        <time>2026-01-13T17:42:29Z</time>
      </trkpt>
      <trkpt lat="45.80837" lon="5.30525">
        <ele>223</ele>
        <time>2026-01-13T17:42:38Z</time>
      </trkpt>
      <trkpt lat="45.80839" lon="5.30431">
        <ele>217</ele>
        <time>2026-01-13T17:42:53Z</time>
      </trkpt>
      <trkpt lat="45.80847" lon="5.30374">
        <ele>216</ele>
        <time>2026-01-13T17:43:02Z</time>
      </trkpt>
      <trkpt lat="45.80881" lon="5.30283">
        <ele>215</ele>
        <time>2026-01-13T17:43:19Z</time>
      </trkpt>
      <trkpt lat="45.80378" lon="5.30129">
        <ele>215</ele>
        <time>2026-01-13T17:45:19Z</time>
      </trkpt>
      <trkpt lat="45.80184" lon="5.30151">
        <ele>215</ele>
        <time>2026-01-13T17:46:05Z</time>
      </trkpt>
      <trkpt lat="45.80026" lon="5.30199">
        <ele>216</ele>
        <time>2026-01-13T17:46:42Z</time>
      </trkpt>
      <trkpt lat="45.8008" lon="5.30306">
        <ele>216</ele>
        <time>2026-01-13T17:47:04Z</time>
      </trkpt>
      <trkpt lat="45.79961" lon="5.30408">
        <ele>220</ele>
        <time>2026-01-13T17:47:36Z</time>
      </trkpt>
      <trkpt lat="45.79963" lon="5.3046">
        <ele>224</ele>
        <time>2026-01-13T17:47:45Z</time>
      </trkpt>
      <trkpt lat="45.79956" lon="5.30508">
        <ele>229</ele>
        <time>2026-01-13T17:47:53Z</time>
      </trkpt>
      <trkpt lat="45.8" lon="5.30595">
        <ele>242</ele>
        <time>2026-01-13T17:48:10Z</time>
      </trkpt>
      <trkpt lat="45.79991" lon="5.30661">
        <ele>257</ele>
        <time>2026-01-13T17:48:21Z</time>
      </trkpt>
      <trkpt lat="45.79947" lon="5.30738">
        <ele>275</ele>
        <time>2026-01-13T17:48:37Z</time>
      </trkpt>
      <trkpt lat="45.79913" lon="5.30851">
        <ele>281</ele>
        <time>2026-01-13T17:48:57Z</time>
      </trkpt>
      <trkpt lat="45.79873" lon="5.30881">
        <ele>284</ele>
        <time>2026-01-13T17:49:08Z</time>
      </trkpt>
      <trkpt lat="45.79854" lon="5.30926">
        <ele>283</ele>
        <time>2026-01-13T17:49:17Z</time>
      </trkpt>
      <trkpt lat="45.79838" lon="5.30934">
        <ele>283</ele>
        <time>2026-01-13T17:49:21Z</time>
      </trkpt>
      <trkpt lat="45.79829" lon="5.30981">
        <ele>282</ele>
        <time>2026-01-13T17:49:28Z</time>
      </trkpt>
      <trkpt lat="45.79796" lon="5.31005">
        <ele>286</ele>
        <time>2026-01-13T17:49:37Z</time>
      </trkpt>
      <trkpt lat="45.79813" lon="5.31052">
        <ele>287</ele>
        <time>2026-01-13T17:49:46Z</time>
      </trkpt>
      <trkpt lat="45.7979" lon="5.31128">
        <ele>292</ele>
        <time>2026-01-13T17:49:59Z</time>
      </trkpt>
      <trkpt lat="45.79696" lon="5.31309">
        <ele>291</ele>
        <time>2026-01-13T17:50:36Z</time>
      </trkpt>
      <trkpt lat="45.79653" lon="5.31278">
        <ele>287</ele>
        <time>2026-01-13T17:50:47Z</time>
      </trkpt>
      <trkpt lat="45.79594" lon="5.31322">
        <ele>287</ele>
        <time>2026-01-13T17:51:03Z</time>
      </trkpt>
      <trkpt lat="45.79537" lon="5.31316">
        <ele>294</ele>
        <time>2026-01-13T17:51:16Z</time>
      </trkpt>
      <trkpt lat="45.79473" lon="5.314">
        <ele>292</ele>
        <time>2026-01-13T17:51:36Z</time>
      </trkpt>
      <trkpt lat="45.7943" lon="5.31414">
        <ele>297</ele>
        <time>2026-01-13T17:51:47Z</time>
      </trkpt>
      <trkpt lat="45.79393" lon="5.31466">
        <ele>300</ele>
        <time>2026-01-13T17:51:59Z</time>
      </trkpt>
      <trkpt lat="45.79269" lon="5.31463">
        <ele>313</ele>
        <time>2026-01-13T17:52:28Z</time>
      </trkpt>
      <trkpt lat="45.79199" lon="5.31499">
        <ele>313</ele>
        <time>2026-01-13T17:52:45Z</time>
      </trkpt>
      <trkpt lat="45.79016" lon="5.31492">
        <ele>329</ele>
        <time>2026-01-13T17:53:28Z</time>
      </trkpt>
      <trkpt lat="45.78984" lon="5.31477">
        <ele>331</ele>
        <time>2026-01-13T17:53:36Z</time>
      </trkpt>
      <trkpt lat="45.78914" lon="5.31335">
        <ele>337</ele>
        <time>2026-01-13T17:54:04Z</time>
      </trkpt>
      <trkpt lat="45.7885" lon="5.31301">
        <ele>333</ele>
        <time>2026-01-13T17:54:20Z</time>
      </trkpt>
      <trkpt lat="45.78804" lon="5.3129">
        <ele>333</ele>
        <time>2026-01-13T17:54:31Z</time>
      </trkpt>
      <trkpt lat="45.78774" lon="5.31254">
        <ele>330</ele>
        <time>2026-01-13T17:54:40Z</time>
      </trkpt>
      <trkpt lat="45.78736" lon="5.31229">
        <ele>326</ele>
        <time>2026-01-13T17:54:50Z</time>
      </trkpt>
      <trkpt lat="45.78689" lon="5.31219">
        <ele>332</ele>
        <time>2026-01-13T17:55:01Z</time>
      </trkpt>
      <trkpt lat="45.78653" lon="5.31138">
        <ele>321</ele>
        <time>2026-01-13T17:55:16Z</time>
      </trkpt>
      <trkpt lat="45.78592" lon="5.3106">
        <ele>316</ele>
        <time>2026-01-13T17:55:36Z</time>
      </trkpt>
      <trkpt lat="45.78509" lon="5.3104">
        <ele>306</ele>
        <time>2026-01-13T17:55:55Z</time>
      </trkpt>
      <trkpt lat="45.78449" lon="5.31086">
        <ele>311</ele>
        <time>2026-01-13T17:56:11Z</time>
      </trkpt>
      <trkpt lat="45.78332" lon="5.31106">
        <ele>306</ele>
        <time>2026-01-13T17:56:39Z</time>
      </trkpt>
      <trkpt lat="45.78288" lon="5.31172">
        <ele>318</ele>
        <time>2026-01-13T17:56:53Z</time>
      </trkpt>
      <trkpt lat="45.78114" lon="5.31247">
        <ele>323</ele>
        <time>2026-01-13T17:57:36Z</time>
      </trkpt>
      <trkpt lat="45.78067" lon="5.31293">
        <ele>325</ele>
        <time>2026-01-13T17:57:49Z</time>
      </trkpt>
      <trkpt lat="45.77985" lon="5.31388">
        <ele>328</ele>
        <time>2026-01-13T17:58:14Z</time>
      </trkpt>
      <trkpt lat="45.7805" lon="5.31484">
        <ele>334</ele>
        <time>2026-01-13T17:58:36Z</time>
      </trkpt>
      <trkpt lat="45.78083" lon="5.31555">
        <ele>338</ele>
        <time>2026-01-13T17:58:49Z</time>
      </trkpt>
      <trkpt lat="45.77995" lon="5.31544">
        <ele>345</ele>
        <time>2026-01-13T17:59:10Z</time>
      </trkpt>
      <trkpt lat="45.77948" lon="5.3149">
        <ele>345</ele>
        <time>2026-01-13T17:59:24Z</time>
      </trkpt>
      <trkpt lat="45.77827" lon="5.31424">
        <ele>335</ele>
        <time>2026-01-13T17:59:54Z</time>
      </trkpt>
      <trkpt lat="45.77716" lon="5.31446">
        <ele>326</ele>
        <time>2026-01-13T18:00:21Z</time>
      </trkpt>
      <trkpt lat="45.77535" lon="5.31551">
        <ele>321</ele>
        <time>2026-01-13T18:01:06Z</time>
      </trkpt>
      <trkpt lat="45.77357" lon="5.31689">
        <ele>317</ele>
        <time>2026-01-13T18:01:53Z</time>
      </trkpt>
      <trkpt lat="45.77315" lon="5.31766">
        <ele>319</ele>
        <time>2026-01-13T18:02:09Z</time>
      </trkpt>
      <trkpt lat="45.7731" lon="5.31873">
        <ele>328</ele>
        <time>2026-01-13T18:02:27Z</time>
      </trkpt>
      <trkpt lat="45.77296" lon="5.31936">
        <ele>328</ele>
        <time>2026-01-13T18:02:38Z</time>
      </trkpt>
      <trkpt lat="45.77315" lon="5.3199">
        <ele>332</ele>
        <time>2026-01-13T18:02:47Z</time>
      </trkpt>
      <trkpt lat="45.77321" lon="5.32082">
        <ele>336</ele>
        <time>2026-01-13T18:03:02Z</time>
      </trkpt>
      <trkpt lat="45.77306" lon="5.32163">
        <ele>337</ele>
        <time>2026-01-13T18:03:16Z</time>
      </trkpt>
      <trkpt lat="45.77301" lon="5.32267">
        <ele>337</ele>
        <time>2026-01-13T18:03:33Z</time>
      </trkpt>
      <trkpt lat="45.77334" lon="5.32359">
        <ele>339</ele>
        <time>2026-01-13T18:03:50Z</time>
      </trkpt>
      <trkpt lat="45.77466" lon="5.32452">
        <ele>344</ele>
        <time>2026-01-13T18:04:24Z</time>
      </trkpt>
      <trkpt lat="45.77441" lon="5.3248">
        <ele>343</ele>
        <time>2026-01-13T18:04:32Z</time>
      </trkpt>
      <trkpt lat="45.77431" lon="5.32561">
        <ele>343</ele>
        <time>2026-01-13T18:04:45Z</time>
      </trkpt>
      <trkpt lat="45.77392" lon="5.32563">
        <ele>341</ele>
        <time>2026-01-13T18:04:54Z</time>
      </trkpt>
      <trkpt lat="45.77383" lon="5.326">
        <ele>341</ele>
        <time>2026-01-13T18:05:01Z</time>
      </trkpt>
      <trkpt lat="45.77336" lon="5.32585">
        <ele>340</ele>
        <time>2026-01-13T18:05:12Z</time>
      </trkpt>
      <trkpt lat="45.77315" lon="5.32617">
        <ele>340</ele>
        <time>2026-01-13T18:05:19Z</time>
      </trkpt>
      <trkpt lat="45.77319" lon="5.32717">
        <ele>341</ele>
        <time>2026-01-13T18:05:35Z</time>
      </trkpt>
      <trkpt lat="45.77234" lon="5.32919">
        <ele>340</ele>
        <time>2026-01-13T18:06:14Z</time>
      </trkpt>
      <trkpt lat="45.77165" lon="5.32995">
        <ele>340</ele>
        <time>2026-01-13T18:06:34Z</time>
      </trkpt>
      <trkpt lat="45.77082" lon="5.33116">
        <ele>336</ele>
        <time>2026-01-13T18:07:02Z</time>
      </trkpt>
      <trkpt lat="45.7698" lon="5.33201">
        <ele>331</ele>
        <time>2026-01-13T18:07:29Z</time>
      </trkpt>
      <trkpt lat="45.76895" lon="5.33304">
        <ele>327</ele>
        <time>2026-01-13T18:07:55Z</time>
      </trkpt>
      <trkpt lat="45.76837" lon="5.33472">
        <ele>324</ele>
        <time>2026-01-13T18:08:26Z</time>
      </trkpt>
      <trkpt lat="45.76754" lon="5.33548">
        <ele>323</ele>
        <time>2026-01-13T18:08:49Z</time>
      </trkpt>
      <trkpt lat="45.76792" lon="5.3363">
        <ele>324</ele>
        <time>2026-01-13T18:09:05Z</time>
      </trkpt>
      <trkpt lat="45.76731" lon="5.33706">
        <ele>328</ele>
        <time>2026-01-13T18:09:24Z</time>
      </trkpt>
      <trkpt lat="45.76706" lon="5.33786">
        <ele>331</ele>
        <time>2026-01-13T18:09:38Z</time>
      </trkpt>
      <trkpt lat="45.76714" lon="5.33826">
        <ele>329</ele>
        <time>2026-01-13T18:09:45Z</time>
      </trkpt>
      <trkpt lat="45.76686" lon="5.33874">
        <ele>330</ele>
        <time>2026-01-13T18:09:55Z</time>
      </trkpt>
      <trkpt lat="45.76643" lon="5.33886">
        <ele>334</ele>
        <time>2026-01-13T18:10:05Z</time>
      </trkpt>
      <trkpt lat="45.7653" lon="5.34">
        <ele>336</ele>
        <time>2026-01-13T18:10:37Z</time>
      </trkpt>
      <trkpt lat="45.76479" lon="5.34109">
        <ele>337</ele>
        <time>2026-01-13T18:10:59Z</time>
      </trkpt>
      <trkpt lat="45.76463" lon="5.34181">
        <ele>336</ele>
        <time>2026-01-13T18:11:11Z</time>
      </trkpt>
      <trkpt lat="45.76424" lon="5.3423">
        <ele>336</ele>
        <time>2026-01-13T18:11:23Z</time>
      </trkpt>
      <trkpt lat="45.76359" lon="5.34267">
        <ele>335</ele>
        <time>2026-01-13T18:11:40Z</time>
      </trkpt>
      <trkpt lat="45.76325" lon="5.34331">
        <ele>335</ele>
        <time>2026-01-13T18:11:53Z</time>
      </trkpt>
      <trkpt lat="45.76238" lon="5.34444">
        <ele>335</ele>
        <time>2026-01-13T18:12:20Z</time>
      </trkpt>
      <trkpt lat="45.7624" lon="5.34494">
        <ele>336</ele>
        <time>2026-01-13T18:12:28Z</time>
      </trkpt>
      <trkpt lat="45.76205" lon="5.34559">
        <ele>338</ele>
        <time>2026-01-13T18:12:42Z</time>
      </trkpt>
      <trkpt lat="45.76146" lon="5.34588">
        <ele>339</ele>
        <time>2026-01-13T18:12:56Z</time>
      </trkpt>
      <trkpt lat="45.76115" lon="5.34573">
        <ele>337</ele>
        <time>2026-01-13T18:13:04Z</time>
      </trkpt>
      <trkpt lat="45.76085" lon="5.34684">
        <ele>342</ele>
        <time>2026-01-13T18:13:23Z</time>
      </trkpt>
      <trkpt lat="45.76045" lon="5.34746">
        <ele>342</ele>
        <time>2026-01-13T18:13:37Z</time>
      </trkpt>
      <trkpt lat="45.75943" lon="5.34813">
        <ele>348</ele>
        <time>2026-01-13T18:14:03Z</time>
      </trkpt>
      <trkpt lat="45.75895" lon="5.34813">
        <ele>349</ele>
        <time>2026-01-13T18:14:14Z</time>
      </trkpt>
      <trkpt lat="45.75868" lon="5.34754">
        <ele>343</ele>
        <time>2026-01-13T18:14:26Z</time>
      </trkpt>
      <trkpt lat="45.7581" lon="5.34691">
        <ele>341</ele>
        <time>2026-01-13T18:14:43Z</time>
      </trkpt>
      <trkpt lat="45.75719" lon="5.34552">
        <ele>340</ele>
        <time>2026-01-13T18:15:14Z</time>
      </trkpt>
      <trkpt lat="45.75684" lon="5.34595">
        <ele>340</ele>
        <time>2026-01-13T18:15:25Z</time>
      </trkpt>
      <trkpt lat="45.75652" lon="5.34597">
        <ele>338</ele>
        <time>2026-01-13T18:15:32Z</time>
      </trkpt>
      <trkpt lat="45.75662" lon="5.34495">
        <ele>336</ele>
        <time>2026-01-13T18:15:49Z</time>
      </trkpt>
      <trkpt lat="45.75672" lon="5.34451">
        <ele>331</ele>
        <time>2026-01-13T18:15:57Z</time>
      </trkpt>
      <trkpt lat="45.75733" lon="5.34358">
        <ele>321</ele>
        <time>2026-01-13T18:16:17Z</time>
      </trkpt>
      <trkpt lat="45.75779" lon="5.34186">
        <ele>306</ele>
        <time>2026-01-13T18:16:47Z</time>
      </trkpt>
      <trkpt lat="45.75767" lon="5.34055">
        <ele>302</ele>
        <time>2026-01-13T18:17:09Z</time>
      </trkpt>
      <trkpt lat="45.75673" lon="5.33985">
        <ele>300</ele>
        <time>2026-01-13T18:17:34Z</time>
      </trkpt>
      <trkpt lat="45.75586" lon="5.34087">
        <ele>298</ele>
        <time>2026-01-13T18:18:00Z</time>
      </trkpt>
      <trkpt lat="45.75573" lon="5.34118">
        <ele>298</ele>
        <time>2026-01-13T18:18:06Z</time>
      </trkpt>
      <trkpt lat="45.75507" lon="5.3421">
        <ele>301</ele>
        <time>2026-01-13T18:18:27Z</time>
      </trkpt>
      <trkpt lat="45.75509" lon="5.3444">
        <ele>310</ele>
        <time>2026-01-13T18:19:05Z</time>
      </trkpt>
      <trkpt lat="45.75431" lon="5.3467">
        <ele>322</ele>
        <time>2026-01-13T18:19:46Z</time>
      </trkpt>
      <trkpt lat="45.75407" lon="5.34749">
        <ele>324</ele>
        <time>2026-01-13T18:20:00Z</time>
      </trkpt>
      <trkpt lat="45.75356" lon="5.34821">
        <ele>326</ele>
        <time>2026-01-13T18:20:17Z</time>
      </trkpt>
      <trkpt lat="45.75286" lon="5.3487">
        <ele>323</ele>
        <time>2026-01-13T18:20:35Z</time>
      </trkpt>
      <trkpt lat="45.75221" lon="5.34947">
        <ele>321</ele>
        <time>2026-01-13T18:20:55Z</time>
      </trkpt>
      <trkpt lat="45.75188" lon="5.35012">
        <ele>318</ele>
        <time>2026-01-13T18:21:08Z</time>
      </trkpt>
      <trkpt lat="45.75162" lon="5.35008">
        <ele>314</ele>
        <time>2026-01-13T18:21:14Z</time>
      </trkpt>
      <trkpt lat="45.75153" lon="5.34963">
        <ele>312</ele>
        <time>2026-01-13T18:21:22Z</time>
      </trkpt>
      <trkpt lat="45.75142" lon="5.35019">
        <ele>313</ele>
        <time>2026-01-13T18:21:31Z</time>
      </trkpt>
      <trkpt lat="45.75115" lon="5.35044">
        <ele>311</ele>
        <time>2026-01-13T18:21:39Z</time>
      </trkpt>
      <trkpt lat="45.75126" lon="5.35145">
        <ele>317</ele>
        <time>2026-01-13T18:21:56Z</time>
      </trkpt>
      <trkpt lat="45.75082" lon="5.35162">
        <ele>315</ele>
        <time>2026-01-13T18:22:06Z</time>
      </trkpt>
      <trkpt lat="45.75091" lon="5.35216">
        <ele>320</ele>
        <time>2026-01-13T18:22:15Z</time>
      </trkpt>
      <trkpt lat="45.75064" lon="5.35277">
        <ele>326</ele>
        <time>2026-01-13T18:22:27Z</time>
      </trkpt>
      <trkpt lat="45.74985" lon="5.35391">
        <ele>337</ele>
        <time>2026-01-13T18:22:53Z</time>
      </trkpt>
      <trkpt lat="45.74979" lon="5.35689">
        <ele>360</ele>
        <time>2026-01-13T18:23:42Z</time>
      </trkpt>
      <trkpt lat="45.74962" lon="5.35868">
        <ele>367</ele>
        <time>2026-01-13T18:24:11Z</time>
      </trkpt>
      <trkpt lat="45.74942" lon="5.35946">
        <ele>372</ele>
        <time>2026-01-13T18:24:25Z</time>
      </trkpt>
      <trkpt lat="45.74956" lon="5.35989">
        <ele>374</ele>
        <time>2026-01-13T18:24:32Z</time>
      </trkpt>
      <trkpt lat="45.7483" lon="5.36056">
        <ele>372</ele>
        <time>2026-01-13T18:25:04Z</time>
      </trkpt>
      <trkpt lat="45.74765" lon="5.36073">
        <ele>372</ele>
        <time>2026-01-13T18:25:19Z</time>
      </trkpt>
      <trkpt lat="45.74697" lon="5.3621">
        <ele>368</ele>
        <time>2026-01-13T18:25:47Z</time>
      </trkpt>
      <trkpt lat="45.74622" lon="5.36432">
        <ele>373</ele>
        <time>2026-01-13T18:26:27Z</time>
      </trkpt>
      <trkpt lat="45.74623" lon="5.36495">
        <ele>371</ele>
        <time>2026-01-13T18:26:37Z</time>
      </trkpt>
      <trkpt lat="45.74652" lon="5.36554">
        <ele>367</ele>
        <time>2026-01-13T18:26:49Z</time>
      </trkpt>
      <trkpt lat="45.74652" lon="5.3663">
        <ele>363</ele>
        <time>2026-01-13T18:27:01Z</time>
      </trkpt>
      <trkpt lat="45.74623" lon="5.36672">
        <ele>362</ele>
        <time>2026-01-13T18:27:11Z</time>
      </trkpt>
      <trkpt lat="45.74621" lon="5.3672">
        <ele>360</ele>
        <time>2026-01-13T18:27:19Z</time>
      </trkpt>
      <trkpt lat="45.74649" lon="5.36761">
        <ele>357</ele>
        <time>2026-01-13T18:27:28Z</time>
      </trkpt>
      <trkpt lat="45.74556" lon="5.37041">
        <ele>360</ele>
        <time>2026-01-13T18:28:19Z</time>
      </trkpt>
      <trkpt lat="45.74746" lon="5.37031">
        <ele>359</ele>
        <time>2026-01-13T18:29:03Z</time>
      </trkpt>
      <trkpt lat="45.74861" lon="5.37078">
        <ele>359</ele>
        <time>2026-01-13T18:29:31Z</time>
      </trkpt>
      <trkpt lat="45.7498" lon="5.37167">
        <ele>359</ele>
        <time>2026-01-13T18:30:02Z</time>
      </trkpt>
      <trkpt lat="45.75011" lon="5.37236">
        <ele>360</ele>
        <time>2026-01-13T18:30:16Z</time>
      </trkpt>
      <trkpt lat="45.75059" lon="5.37293">
        <ele>362</ele>
        <time>2026-01-13T18:30:30Z</time>
      </trkpt>
      <trkpt lat="45.75139" lon="5.37338">
        <ele>366</ele>
        <time>2026-01-13T18:30:50Z</time>
      </trkpt>
      <trkpt lat="45.75366" lon="5.37336">
        <ele>354</ele>
        <time>2026-01-13T18:31:43Z</time>
      </trkpt>
      <trkpt lat="45.75456" lon="5.37358">
        <ele>349</ele>
        <time>2026-01-13T18:32:05Z</time>
      </trkpt>
      <trkpt lat="45.75485" lon="5.37409">
        <ele>345</ele>
        <time>2026-01-13T18:32:15Z</time>
      </trkpt>
      <trkpt lat="45.75512" lon="5.37207">
        <ele>352</ele>
        <time>2026-01-13T18:32:49Z</time>
      </trkpt>
      <trkpt lat="45.75575" lon="5.3694">
        <ele>362</ele>
        <time>2026-01-13T18:33:35Z</time>
      </trkpt>
      <trkpt lat="45.75606" lon="5.36768">
        <ele>366</ele>
        <time>2026-01-13T18:34:04Z</time>
      </trkpt>
      <trkpt lat="45.75589" lon="5.3661">
        <ele>362</ele>
        <time>2026-01-13T18:34:30Z</time>
      </trkpt>
      <trkpt lat="45.75529" lon="5.36547">
        <ele>357</ele>
        <time>2026-01-13T18:34:47Z</time>
      </trkpt>
      <trkpt lat="45.75467" lon="5.36406">
        <ele>356</ele>
        <time>2026-01-13T18:35:14Z</time>
      </trkpt>
      <trkpt lat="45.75491" lon="5.36346">
        <ele>355</ele>
        <time>2026-01-13T18:35:26Z</time>
      </trkpt>
      <trkpt lat="45.755" lon="5.36174">
        <ele>358</ele>
        <time>2026-01-13T18:35:54Z</time>
      </trkpt>
      <trkpt lat="45.75484" lon="5.35989">
        <ele>358</ele>
        <time>2026-01-13T18:36:24Z</time>
      </trkpt>
      <trkpt lat="45.75552" lon="5.35934">
        <ele>357</ele>
        <time>2026-01-13T18:36:42Z</time>
      </trkpt>
      <trkpt lat="45.75736" lon="5.35983">
        <ele>356</ele>
        <time>2026-01-13T18:37:26Z</time>
      </trkpt>
      <trkpt lat="45.75844" lon="5.3591">
        <ele>354</ele>
        <time>2026-01-13T18:37:54Z</time>
      </trkpt>
      <trkpt lat="45.76039" lon="5.35768">
        <ele>355</ele>
        <time>2026-01-13T18:38:45Z</time>
      </trkpt>
      <trkpt lat="45.76096" lon="5.35834">
        <ele>352</ele>
        <time>2026-01-13T18:39:02Z</time>
      </trkpt>
      <trkpt lat="45.76143" lon="5.35837">
        <ele>353</ele>
        <time>2026-01-13T18:39:13Z</time>
      </trkpt>
      <trkpt lat="45.76225" lon="5.35978">
        <ele>353</ele>
        <time>2026-01-13T18:39:43Z</time>
      </trkpt>
      <trkpt lat="45.76233" lon="5.36141">
        <ele>351</ele>
        <time>2026-01-13T18:40:10Z</time>
      </trkpt>
      <trkpt lat="45.76299" lon="5.36079">
        <ele>352</ele>
        <time>2026-01-13T18:40:28Z</time>
      </trkpt>
      <trkpt lat="45.76376" lon="5.36045">
        <ele>358</ele>
        <time>2026-01-13T18:40:47Z</time>
      </trkpt>
      <trkpt lat="45.76538" lon="5.35928">
        <ele>366</ele>
        <time>2026-01-13T18:41:29Z</time>
      </trkpt>
      <trkpt lat="45.76673" lon="5.35798">
        <ele>368</ele>
        <time>2026-01-13T18:42:07Z</time>
      </trkpt>
      <trkpt lat="45.76824" lon="5.35647">
        <ele>367</ele>
        <time>2026-01-13T18:42:50Z</time>
      </trkpt>
      <trkpt lat="45.76936" lon="5.35684">
        <ele>369</ele>
        <time>2026-01-13T18:43:17Z</time>
      </trkpt>
      <trkpt lat="45.77029" lon="5.35656">
        <ele>365</ele>
        <time>2026-01-13T18:43:39Z</time>
      </trkpt>
      <trkpt lat="45.77058" lon="5.35625">
        <ele>362</ele>
        <time>2026-01-13T18:43:48Z</time>
      </trkpt>
      <trkpt lat="45.77049" lon="5.3556">
        <ele>362</ele>
        <time>2026-01-13T18:43:58Z</time>
      </trkpt>
      <trkpt lat="45.77081" lon="5.35401">
        <ele>364</ele>
        <time>2026-01-13T18:44:25Z</time>
      </trkpt>
      <trkpt lat="45.77202" lon="5.352">
        <ele>349</ele>
        <time>2026-01-13T18:45:09Z</time>
      </trkpt>
      <trkpt lat="45.77304" lon="5.35115">
        <ele>347</ele>
        <time>2026-01-13T18:45:36Z</time>
      </trkpt>
      <trkpt lat="45.77356" lon="5.35104">
        <ele>346</ele>
        <time>2026-01-13T18:45:49Z</time>
      </trkpt>
      <trkpt lat="45.77406" lon="5.3507">
        <ele>344</ele>
        <time>2026-01-13T18:46:01Z</time>
      </trkpt>
      <trkpt lat="45.77556" lon="5.34988">
        <ele>337</ele>
        <time>2026-01-13T18:46:39Z</time>
      </trkpt>
      <trkpt lat="45.77644" lon="5.3511">
        <ele>336</ele>
        <time>2026-01-13T18:47:08Z</time>
      </trkpt>
      <trkpt lat="45.77708" lon="5.35186">
        <ele>326</ele>
        <time>2026-01-13T18:47:27Z</time>
      </trkpt>
      <trkpt lat="45.77732" lon="5.35127">
        <ele>321</ele>
        <time>2026-01-13T18:47:38Z</time>
      </trkpt>
      <trkpt lat="45.77703" lon="5.35033">
        <ele>322</ele>
        <time>2026-01-13T18:47:55Z</time>
      </trkpt>
      <trkpt lat="45.77746" lon="5.34942">
        <ele>314</ele>
        <time>2026-01-13T18:48:13Z</time>
      </trkpt>
      <trkpt lat="45.77831" lon="5.34899">
        <ele>310</ele>
        <time>2026-01-13T18:48:34Z</time>
      </trkpt>
      <trkpt lat="45.77887" lon="5.34906">
        <ele>313</ele>
        <time>2026-01-13T18:48:47Z</time>
      </trkpt>
      <trkpt lat="45.78068" lon="5.3462">
        <ele>320</ele>
        <time>2026-01-13T18:49:50Z</time>
      </trkpt>
      <trkpt lat="45.78051" lon="5.34541">
        <ele>321</ele>
        <time>2026-01-13T18:50:03Z</time>
      </trkpt>
      <trkpt lat="45.7801" lon="5.34286">
        <ele>329</ele>
        <time>2026-01-13T18:50:46Z</time>
      </trkpt>
      <trkpt lat="45.77972" lon="5.3425">
        <ele>331</ele>
        <time>2026-01-13T18:50:56Z</time>
      </trkpt>
      <trkpt lat="45.78" lon="5.34149">
        <ele>337</ele>
        <time>2026-01-13T18:51:14Z</time>
      </trkpt>
      <trkpt lat="45.7778" lon="5.34226">
        <ele>336</ele>
        <time>2026-01-13T18:52:07Z</time>
      </trkpt>
      <trkpt lat="45.77635" lon="5.34121">
        <ele>339</ele>
        <time>2026-01-13T18:52:45Z</time>
      </trkpt>
      <trkpt lat="45.77489" lon="5.34074">
        <ele>338</ele>
        <time>2026-01-13T18:53:20Z</time>
      </trkpt>
      <trkpt lat="45.77352" lon="5.33958">
        <ele>334</ele>
        <time>2026-01-13T18:53:57Z</time>
      </trkpt>
      <trkpt lat="45.77416" lon="5.337">
        <ele>340</ele>
        <time>2026-01-13T18:54:42Z</time>
      </trkpt>
      <trkpt lat="45.7746" lon="5.33606">
        <ele>342</ele>
        <time>2026-01-13T18:55:00Z</time>
      </trkpt>
      <trkpt lat="45.77376" lon="5.3338">
        <ele>343</ele>
        <time>2026-01-13T18:55:42Z</time>
      </trkpt>
      <trkpt lat="45.77333" lon="5.33292">
        <ele>343</ele>
        <time>2026-01-13T18:55:59Z</time>
      </trkpt>
      <trkpt lat="45.77263" lon="5.33117">
        <ele>343</ele>
        <time>2026-01-13T18:56:32Z</time>
      </trkpt>
      <trkpt lat="45.77259" lon="5.33071">
        <ele>343</ele>
        <time>2026-01-13T18:56:40Z</time>
      </trkpt>
      <trkpt lat="45.77286" lon="5.32951">
        <ele>341</ele>
        <time>2026-01-13T18:57:00Z</time>
      </trkpt>
      <trkpt lat="45.7725" lon="5.32931">
        <ele>340</ele>
        <time>2026-01-13T18:57:09Z</time>
      </trkpt>
      <trkpt lat="45.77421" lon="5.32962">
        <ele>344</ele>
        <time>2026-01-13T18:57:50Z</time>
      </trkpt>
      <trkpt lat="45.77515" lon="5.32946">
        <ele>346</ele>
        <time>2026-01-13T18:58:12Z</time>
      </trkpt>
      <trkpt lat="45.7756" lon="5.3299">
        <ele>348</ele>
        <time>2026-01-13T18:58:24Z</time>
      </trkpt>
      <trkpt lat="45.77618" lon="5.32986">
        <ele>350</ele>
        <time>2026-01-13T18:58:38Z</time>
      </trkpt>
      <trkpt lat="45.77651" lon="5.33013">
        <ele>351</ele>
        <time>2026-01-13T18:58:47Z</time>
      </trkpt>
      <trkpt lat="45.77776" lon="5.33161">
        <ele>357</ele>
        <time>2026-01-13T18:59:25Z</time>
      </trkpt>
      <trkpt lat="45.77891" lon="5.33171">
        <ele>362</ele>
        <time>2026-01-13T18:59:52Z</time>
      </trkpt>
      <trkpt lat="45.78191" lon="5.3328">
        <ele>367</ele>
        <time>2026-01-13T19:01:04Z</time>
      </trkpt>
      <trkpt lat="45.78308" lon="5.33386">
        <ele>363</ele>
        <time>2026-01-13T19:01:36Z</time>
      </trkpt>
      <trkpt lat="45.78529" lon="5.33409">
        <ele>364</ele>
        <time>2026-01-13T19:02:28Z</time>
      </trkpt>
      <trkpt lat="45.78608" lon="5.33456">
        <ele>364</ele>
        <time>2026-01-13T19:02:48Z</time>
      </trkpt>
      <trkpt lat="45.78748" lon="5.33474">
        <ele>365</ele>
        <time>2026-01-13T19:03:21Z</time>
      </trkpt>
      <trkpt lat="45.78903" lon="5.33564">
        <ele>368</ele>
        <time>2026-01-13T19:04:00Z</time>
      </trkpt>
      <trkpt lat="45.79081" lon="5.33696">
        <ele>365</ele>
        <time>2026-01-13T19:04:47Z</time>
      </trkpt>
      <trkpt lat="45.7912" lon="5.33684">
        <ele>365</ele>
        <time>2026-01-13T19:04:56Z</time>
      </trkpt>
      <trkpt lat="45.79278" lon="5.33747">
        <ele>358</ele>
        <time>2026-01-13T19:05:34Z</time>
      </trkpt>
      <trkpt lat="45.79339" lon="5.33684">
        <ele>359</ele>
        <time>2026-01-13T19:05:52Z</time>
      </trkpt>
      <trkpt lat="45.794" lon="5.33719">
        <ele>355</ele>
        <time>2026-01-13T19:06:07Z</time>
      </trkpt>
      <trkpt lat="45.79446" lon="5.33698">
        <ele>354</ele>
        <time>2026-01-13T19:06:18Z</time>
      </trkpt>
      <trkpt lat="45.79484" lon="5.33705">
        <ele>352</ele>
        <time>2026-01-13T19:06:27Z</time>
      </trkpt>
      <trkpt lat="45.79565" lon="5.33788">
        <ele>350</ele>
        <time>2026-01-13T19:06:51Z</time>
      </trkpt>
      <trkpt lat="45.79652" lon="5.33859">
        <ele>352</ele>
        <time>2026-01-13T19:07:14Z</time>
      </trkpt>
      <trkpt lat="45.79779" lon="5.33918">
        <ele>355</ele>
        <time>2026-01-13T19:07:45Z</time>
      </trkpt>
      <trkpt lat="45.79906" lon="5.33943">
        <ele>356</ele>
        <time>2026-01-13T19:08:15Z</time>
      </trkpt>
      <trkpt lat="45.80035" lon="5.33947">
        <ele>356</ele>
        <time>2026-01-13T19:08:45Z</time>
      </trkpt>
      <trkpt lat="45.80108" lon="5.34004">
        <ele>358</ele>
        <time>2026-01-13T19:09:05Z</time>
      </trkpt>
      <trkpt lat="45.80139" lon="5.34036">
        <ele>358</ele>
        <time>2026-01-13T19:09:14Z</time>
      </trkpt>
      <trkpt lat="45.80191" lon="5.34122">
        <ele>355</ele>
        <time>2026-01-13T19:09:32Z</time>
      </trkpt>
      <trkpt lat="45.80167" lon="5.34171">
        <ele>355</ele>
        <time>2026-01-13T19:09:42Z</time>
      </trkpt>
      <trkpt lat="45.80163" lon="5.34211">
        <ele>355</ele>
        <time>2026-01-13T19:09:48Z</time>
      </trkpt>
      <trkpt lat="45.80175" lon="5.34254">
        <ele>355</ele>
        <time>2026-01-13T19:09:56Z</time>
      </trkpt>
      <trkpt lat="45.802" lon="5.34284">
        <ele>354</ele>
        <time>2026-01-13T19:10:04Z</time>
      </trkpt>
      <trkpt lat="45.80213" lon="5.34364">
        <ele>355</ele>
        <time>2026-01-13T19:10:17Z</time>
      </trkpt>
      <trkpt lat="45.80191" lon="5.34397">
        <ele>360</ele>
        <time>2026-01-13T19:10:24Z</time>
      </trkpt>
      <trkpt lat="45.80171" lon="5.34433">
        <ele>363</ele>
        <time>2026-01-13T19:10:32Z</time>
      </trkpt>
      <trkpt lat="45.80144" lon="5.3446">
        <ele>364</ele>
        <time>2026-01-13T19:10:40Z</time>
      </trkpt>
      <trkpt lat="45.80125" lon="5.34484">
        <ele>364</ele>
        <time>2026-01-13T19:10:45Z</time>
      </trkpt>
      <trkpt lat="45.80099" lon="5.34506">
        <ele>365</ele>
        <time>2026-01-13T19:10:52Z</time>
      </trkpt>
      <trkpt lat="45.80042" lon="5.34571">
        <ele>364</ele>
        <time>2026-01-13T19:11:10Z</time>
      </trkpt>
      <trkpt lat="45.80007" lon="5.34646">
        <ele>359</ele>
        <time>2026-01-13T19:11:24Z</time>
      </trkpt>
      <trkpt lat="45.79976" lon="5.34671">
        <ele>360</ele>
        <time>2026-01-13T19:11:33Z</time>
      </trkpt>
      <trkpt lat="45.79915" lon="5.34647">
        <ele>365</ele>
        <time>2026-01-13T19:11:47Z</time>
      </trkpt>
      <trkpt lat="45.79783" lon="5.34656">
        <ele>365</ele>
        <time>2026-01-13T19:12:18Z</time>
      </trkpt>
      <trkpt lat="45.79823" lon="5.34726">
        <ele>364</ele>
        <time>2026-01-13T19:12:33Z</time>
      </trkpt>
      <trkpt lat="45.79846" lon="5.34829">
        <ele>357</ele>
        <time>2026-01-13T19:12:50Z</time>
      </trkpt>
      <trkpt lat="45.79829" lon="5.34881">
        <ele>351</ele>
        <time>2026-01-13T19:13:00Z</time>
      </trkpt>
      <trkpt lat="45.79775" lon="5.34933">
        <ele>350</ele>
        <time>2026-01-13T19:13:15Z</time>
      </trkpt>
      <trkpt lat="45.79768" lon="5.34949">
        <ele>347</ele>
        <time>2026-01-13T19:13:18Z</time>
      </trkpt>
      <trkpt lat="45.79741" lon="5.34937">
        <ele>355</ele>
        <time>2026-01-13T19:13:25Z</time>
      </trkpt>
      <trkpt lat="45.79727" lon="5.34959">
        <ele>352</ele>
        <time>2026-01-13T19:13:30Z</time>
      </trkpt>
      <trkpt lat="45.79704" lon="5.3497">
        <ele>353</ele>
        <time>2026-01-13T19:13:35Z</time>
      </trkpt>
      <trkpt lat="45.79642" lon="5.35113">
        <ele>336</ele>
        <time>2026-01-13T19:14:03Z</time>
      </trkpt>
      <trkpt lat="45.79502" lon="5.35202">
        <ele>340</ele>
        <time>2026-01-13T19:14:38Z</time>
      </trkpt>
      <trkpt lat="45.79488" lon="5.35229">
        <ele>337</ele>
        <time>2026-01-13T19:14:44Z</time>
      </trkpt>
      <trkpt lat="45.79341" lon="5.35282">
        <ele>336</ele>
        <time>2026-01-13T19:15:19Z</time>
      </trkpt>
      <trkpt lat="45.79313" lon="5.35268">
        <ele>338</ele>
        <time>2026-01-13T19:15:26Z</time>
      </trkpt>
      <trkpt lat="45.79242" lon="5.35343">
        <ele>327</ele>
        <time>2026-01-13T19:15:47Z</time>
      </trkpt>
      <trkpt lat="45.79148" lon="5.35335">
        <ele>327</ele>
        <time>2026-01-13T19:16:09Z</time>
      </trkpt>
      <trkpt lat="45.79137" lon="5.35301">
        <ele>332</ele>
        <time>2026-01-13T19:16:15Z</time>
      </trkpt>
      <trkpt lat="45.79085" lon="5.35292">
        <ele>334</ele>
        <time>2026-01-13T19:16:27Z</time>
      </trkpt>
      <trkpt lat="45.78986" lon="5.3539">
        <ele>324</ele>
        <time>2026-01-13T19:16:55Z</time>
      </trkpt>
      <trkpt lat="45.78884" lon="5.35437">
        <ele>318</ele>
        <time>2026-01-13T19:17:20Z</time>
      </trkpt>
      <trkpt lat="45.7886" lon="5.35418">
        <ele>322</ele>
        <time>2026-01-13T19:17:27Z</time>
      </trkpt>
      <trkpt lat="45.78799" lon="5.35445">
        <ele>319</ele>
        <time>2026-01-13T19:17:42Z</time>
      </trkpt>
      <trkpt lat="45.78778" lon="5.35474">
        <ele>318</ele>
        <time>2026-01-13T19:17:48Z</time>
      </trkpt>
      <trkpt lat="45.78799" lon="5.35527">
        <ele>311</ele>
        <time>2026-01-13T19:17:58Z</time>
      </trkpt>
      <trkpt lat="45.7866" lon="5.35638">
        <ele>310</ele>
        <time>2026-01-13T19:18:35Z</time>
      </trkpt>
      <trkpt lat="45.78627" lon="5.35703">
        <ele>306</ele>
        <time>2026-01-13T19:18:49Z</time>
      </trkpt>
      <trkpt lat="45.78532" lon="5.35752">
        <ele>303</ele>
        <time>2026-01-13T19:19:12Z</time>
      </trkpt>
      <trkpt lat="45.78599" lon="5.3579">
        <ele>298</ele>
        <time>2026-01-13T19:19:29Z</time>
      </trkpt>
      <trkpt lat="45.78577" lon="5.35836">
        <ele>295</ele>
        <time>2026-01-13T19:19:38Z</time>
      </trkpt>
      <trkpt lat="45.78512" lon="5.3586">
        <ele>298</ele>
        <time>2026-01-13T19:19:54Z</time>
      </trkpt>
      <trkpt lat="45.78493" lon="5.35928">
        <ele>296</ele>
        <time>2026-01-13T19:20:06Z</time>
      </trkpt>
      <trkpt lat="45.78528" lon="5.35963">
        <ele>285</ele>
        <time>2026-01-13T19:20:16Z</time>
      </trkpt>
      <trkpt lat="45.78586" lon="5.35895">
        <ele>282</ele>
        <time>2026-01-13T19:20:33Z</time>
      </trkpt>
      <trkpt lat="45.78588" lon="5.35977">
        <ele>269</ele>
        <time>2026-01-13T19:20:46Z</time>
      </trkpt>
      <trkpt lat="45.7858" lon="5.36071">
        <ele>265</ele>
        <time>2026-01-13T19:21:02Z</time>
      </trkpt>
      <trkpt lat="45.78612" lon="5.36124">
        <ele>264</ele>
        <time>2026-01-13T19:21:13Z</time>
      </trkpt>
      <trkpt lat="45.78761" lon="5.36184">
        <ele>264</ele>
        <time>2026-01-13T19:21:49Z</time>
      </trkpt>
      <trkpt lat="45.78774" lon="5.3635">
        <ele>267</ele>
        <time>2026-01-13T19:22:17Z</time>
      </trkpt>
      <trkpt lat="45.78818" lon="5.36476">
        <ele>266</ele>
        <time>2026-01-13T19:22:40Z</time>
      </trkpt>
      <trkpt lat="45.78835" lon="5.36475">
        <ele>267</ele>
        <time>2026-01-13T19:22:44Z</time>
      </trkpt>
      <trkpt lat="45.78869" lon="5.3654">
        <ele>266</ele>
        <time>2026-01-13T19:22:57Z</time>
      </trkpt>
      <trkpt lat="45.78911" lon="5.36559">
        <ele>266</ele>
        <time>2026-01-13T19:23:07Z</time>
      </trkpt>
      <trkpt lat="45.78943" lon="5.36649">
        <ele>276</ele>
        <time>2026-01-13T19:23:23Z</time>
      </trkpt>
      <trkpt lat="45.78842" lon="5.36882">
        <ele>298</ele>
        <time>2026-01-13T19:24:08Z</time>
      </trkpt>
      <trkpt lat="45.78869" lon="5.36982">
        <ele>308</ele>
        <time>2026-01-13T19:24:26Z</time>
      </trkpt>
      <trkpt lat="45.78936" lon="5.37077">
        <ele>309</ele>
        <time>2026-01-13T19:24:48Z</time>
      </trkpt>
      <trkpt lat="45.79097" lon="5.37096">
        <ele>313</ele>
        <time>2026-01-13T19:25:25Z</time>
      </trkpt>
      <trkpt lat="45.79158" lon="5.3711">
        <ele>315</ele>
        <time>2026-01-13T19:25:40Z</time>
      </trkpt>
      <trkpt lat="45.79243" lon="5.37059">
        <ele>315</ele>
        <time>2026-01-13T19:26:01Z</time>
      </trkpt>
      <trkpt lat="45.79322" lon="5.37087">
        <ele>314</ele>
        <time>2026-01-13T19:26:20Z</time>
      </trkpt>
      <trkpt lat="45.79407" lon="5.37075">
        <ele>303</ele>
        <time>2026-01-13T19:26:40Z</time>
      </trkpt>
      <trkpt lat="45.79546" lon="5.37116">
        <ele>297</ele>
        <time>2026-01-13T19:27:13Z</time>
      </trkpt>
      <trkpt lat="45.79752" lon="5.3708">
        <ele>284</ele>
        <time>2026-01-13T19:28:02Z</time>
      </trkpt>
      <trkpt lat="45.79969" lon="5.36945">
        <ele>271</ele>
        <time>2026-01-13T19:28:57Z</time>
      </trkpt>
      <trkpt lat="45.80032" lon="5.36854">
        <ele>271</ele>
        <time>2026-01-13T19:29:18Z</time>
      </trkpt>
      <trkpt lat="45.80066" lon="5.36853">
        <ele>270</ele>
        <time>2026-01-13T19:29:26Z</time>
      </trkpt>
      <trkpt lat="45.80111" lon="5.36934">
        <ele>268</ele>
        <time>2026-01-13T19:29:43Z</time>
      </trkpt>
      <trkpt lat="45.80132" lon="5.37031">
        <ele>267</ele>
        <time>2026-01-13T19:29:59Z</time>
      </trkpt>
      <trkpt lat="45.80242" lon="5.37073">
        <ele>269</ele>
        <time>2026-01-13T19:30:26Z</time>
      </trkpt>
      <trkpt lat="45.80272" lon="5.37123">
        <ele>271</ele>
        <time>2026-01-13T19:30:37Z</time>
      </trkpt>
      <trkpt lat="45.80326" lon="5.37153">
        <ele>273</ele>
        <time>2026-01-13T19:30:50Z</time>
      </trkpt>
      <trkpt lat="45.80342" lon="5.37067">
        <ele>271</ele>
        <time>2026-01-13T19:31:05Z</time>
      </trkpt>
      <trkpt lat="45.80416" lon="5.37067">
        <ele>272</ele>
        <time>2026-01-13T19:31:22Z</time>
      </trkpt>
      <trkpt lat="45.80459" lon="5.37038">
        <ele>266</ele>
        <time>2026-01-13T19:31:33Z</time>
      </trkpt>
      <trkpt lat="45.80644" lon="5.37106">
        <ele>267</ele>
        <time>2026-01-13T19:32:18Z</time>
      </trkpt>
      <trkpt lat="45.80773" lon="5.3717">
        <ele>267</ele>
        <time>2026-01-13T19:32:50Z</time>
      </trkpt>
      <trkpt lat="45.8081" lon="5.37179">
        <ele>267</ele>
        <time>2026-01-13T19:32:58Z</time>
      </trkpt>
      <trkpt lat="45.80849" lon="5.3724">
        <ele>270</ele>
        <time>2026-01-13T19:33:12Z</time>
      </trkpt>
      <trkpt lat="45.80856" lon="5.37308">
        <ele>277</ele>
        <time>2026-01-13T19:33:23Z</time>
      </trkpt>
      <trkpt lat="45.80905" lon="5.37373">
        <ele>276</ele>
        <time>2026-01-13T19:33:39Z</time>
      </trkpt>
      <trkpt lat="45.81008" lon="5.37457">
        <ele>271</ele>
        <time>2026-01-13T19:34:06Z</time>
      </trkpt>
      <trkpt lat="45.81043" lon="5.37685">
        <ele>273</ele>
        <time>2026-01-13T19:34:44Z</time>
      </trkpt>
      <trkpt lat="45.80987" lon="5.3783">
        <ele>272</ele>
        <time>2026-01-13T19:35:11Z</time>
      </trkpt>
      <trkpt lat="45.80945" lon="5.37857">
        <ele>275</ele>
        <time>2026-01-13T19:35:22Z</time>
      </trkpt>
      <trkpt lat="45.80904" lon="5.37913">
        <ele>273</ele>
        <time>2026-01-13T19:35:35Z</time>
      </trkpt>
      <trkpt lat="45.80895" lon="5.3802">
        <ele>271</ele>
        <time>2026-01-13T19:35:53Z</time>
      </trkpt>
      <trkpt lat="45.80955" lon="5.38248">
        <ele>278</ele>
        <time>2026-01-13T19:36:32Z</time>
      </trkpt>
      <trkpt lat="45.81012" lon="5.3853">
        <ele>280</ele>
        <time>2026-01-13T19:37:20Z</time>
      </trkpt>
      <trkpt lat="45.81011" lon="5.38726">
        <ele>270</ele>
        <time>2026-01-13T19:37:52Z</time>
      </trkpt>
      <trkpt lat="45.80925" lon="5.38862">
        <ele>265</ele>
        <time>2026-01-13T19:38:22Z</time>
      </trkpt>
      <trkpt lat="45.80867" lon="5.3894">
        <ele>263</ele>
        <time>2026-01-13T19:38:41Z</time>
      </trkpt>
      <trkpt lat="45.80859" lon="5.38992">
        <ele>260</ele>
        <time>2026-01-13T19:38:49Z</time>
      </trkpt>
      <trkpt lat="45.80879" lon="5.39094">
        <ele>259</ele>
        <time>2026-01-13T19:39:06Z</time>
      </trkpt>
      <trkpt lat="45.80841" lon="5.39244">
        <ele>255</ele>
        <time>2026-01-13T19:39:32Z</time>
      </trkpt>
      <trkpt lat="45.8085" lon="5.3927">
        <ele>254</ele>
        <time>2026-01-13T19:39:37Z</time>
      </trkpt>
      <trkpt lat="45.8093" lon="5.39306">
        <ele>251</ele>
        <time>2026-01-13T19:39:57Z</time>
      </trkpt>
      <trkpt lat="45.80963" lon="5.39478">
        <ele>244</ele>
        <time>2026-01-13T19:40:26Z</time>
      </trkpt>
      <trkpt lat="45.80811" lon="5.39747">
        <ele>231</ele>
        <time>2026-01-13T19:41:22Z</time>
      </trkpt>
      <trkpt lat="45.80865" lon="5.39948">
        <ele>225</ele>
        <time>2026-01-13T19:41:57Z</time>
      </trkpt>
      <trkpt lat="45.8083" lon="5.39992">
        <ele>224</ele>
        <time>2026-01-13T19:42:08Z</time>
      </trkpt>
      <trkpt lat="45.80904" lon="5.40085">
        <ele>224</ele>
        <time>2026-01-13T19:42:31Z</time>
      </trkpt>
      <trkpt lat="45.80922" lon="5.40072">
        <ele>224</ele>
        <time>2026-01-13T19:42:36Z</time>
      </trkpt>
      <trkpt lat="45.8096" lon="5.40244">
        <ele>224</ele>
        <time>2026-01-13T19:43:05Z</time>
      </trkpt>
      <trkpt lat="45.8096" lon="5.40315">
        <ele>222</ele>
        <time>2026-01-13T19:43:17Z</time>
      </trkpt>
      <trkpt lat="45.8102" lon="5.40549">
        <ele>218</ele>
        <time>2026-01-13T19:43:57Z</time>
      </trkpt>
      <trkpt lat="45.8106" lon="5.405">
        <ele>218</ele>
        <time>2026-01-13T19:44:10Z</time>
      </trkpt>
      <trkpt lat="45.8113" lon="5.40465">
        <ele>217</ele>
        <time>2026-01-13T19:44:27Z</time>
      </trkpt>
      <trkpt lat="45.81134" lon="5.40491">
        <ele>217</ele>
        <time>2026-01-13T19:44:31Z</time>
      </trkpt>
      <trkpt lat="45.81165" lon="5.40508">
        <ele>216</ele>
        <time>2026-01-13T19:44:39Z</time>
      </trkpt>
      <trkpt lat="45.81185" lon="5.40502">
        <ele>216</ele>
        <time>2026-01-13T19:44:44Z</time>
      </trkpt>
      <trkpt lat="45.81206" lon="5.40595">
        <ele>217</ele>
        <time>2026-01-13T19:45:00Z</time>
      </trkpt>
      <trkpt lat="45.81225" lon="5.4062">
        <ele>216</ele>
        <time>2026-01-13T19:45:06Z</time>
      </trkpt>
      <trkpt lat="45.81223" lon="5.40676">
        <ele>215</ele>
        <time>2026-01-13T19:45:15Z</time>
      </trkpt>
      <trkpt lat="45.81253" lon="5.40753">
        <ele>216</ele>
        <time>2026-01-13T19:45:29Z</time>
      </trkpt>
      <trkpt lat="45.81292" lon="5.40794">
        <ele>215</ele>
        <time>2026-01-13T19:45:40Z</time>
      </trkpt>
      <trkpt lat="45.81347" lon="5.40805">
        <ele>212</ele>
        <time>2026-01-13T19:45:53Z</time>
      </trkpt>
      <trkpt lat="45.81407" lon="5.41034">
        <ele>209</ele>
        <time>2026-01-13T19:46:33Z</time>
      </trkpt>
      <trkpt lat="45.81419" lon="5.41091">
        <ele>210</ele>
        <time>2026-01-13T19:46:43Z</time>
      </trkpt>
      <trkpt lat="45.81458" lon="5.41155">
        <ele>209</ele>
        <time>2026-01-13T19:46:57Z</time>
      </trkpt>
      <trkpt lat="45.81495" lon="5.41202">
        <ele>208</ele>
        <time>2026-01-13T19:47:08Z</time>
      </trkpt>
      <trkpt lat="45.81625" lon="5.41598">
        <ele>205</ele>
        <time>2026-01-13T19:48:20Z</time>
      </trkpt>
      <trkpt lat="45.81636" lon="5.41728">
        <ele>202</ele>
        <time>2026-01-13T19:48:41Z</time>
      </trkpt>
      <trkpt lat="45.81707" lon="5.41781">
        <ele>201</ele>
        <time>2026-01-13T19:49:00Z</time>
      </trkpt>
      <trkpt lat="45.81875" lon="5.41892">
        <ele>201</ele>
        <time>2026-01-13T19:49:43Z</time>
      </trkpt>
      <trkpt lat="45.82055" lon="5.4195">
        <ele>201</ele>
        <time>2026-01-13T19:50:26Z</time>
      </trkpt>
      <trkpt lat="45.82142" lon="5.41983">
        <ele>201</ele>
        <time>2026-01-13T19:50:47Z</time>
      </trkpt>
      <trkpt lat="45.82201" lon="5.41939">
        <ele>204</ele>
        <time>2026-01-13T19:51:02Z</time>
      </trkpt>
      <trkpt lat="45.82249" lon="5.41983">
        <ele>204</ele>
        <time>2026-01-13T19:51:16Z</time>
      </trkpt>
      <trkpt lat="45.82265" lon="5.42021">
        <ele>202</ele>
        <time>2026-01-13T19:51:23Z</time>
      </trkpt>
      <trkpt lat="45.82294" lon="5.42015">
        <ele>203</ele>
        <time>2026-01-13T19:51:30Z</time>
      </trkpt>
      <trkpt lat="45.82339" lon="5.42028">
        <ele>204</ele>
        <time>2026-01-13T19:51:40Z</time>
      </trkpt>
      <trkpt lat="45.82378" lon="5.42066">
        <ele>204</ele>
        <time>2026-01-13T19:51:51Z</time>
      </trkpt>
      <trkpt lat="45.82427" lon="5.42102">
        <ele>204</ele>
        <time>2026-01-13T19:52:04Z</time>
      </trkpt>
      <trkpt lat="45.82462" lon="5.42104">
        <ele>203</ele>
        <time>2026-01-13T19:52:12Z</time>
      </trkpt>
      <trkpt lat="45.82498" lon="5.42088">
        <ele>202</ele>
        <time>2026-01-13T19:52:21Z</time>
      </trkpt>
      <trkpt lat="45.82562" lon="5.42087">
        <ele>205</ele>
        <time>2026-01-13T19:52:36Z</time>
      </trkpt>
      <trkpt lat="45.82598" lon="5.42236">
        <ele>203</ele>
        <time>2026-01-13T19:53:02Z</time>
      </trkpt>
      <trkpt lat="45.82753" lon="5.42115">
        <ele>205</ele>
        <time>2026-01-13T19:53:43Z</time>
      </trkpt>
    </trkseg>
  </trk>
</gpx>